<?xml version="1.0" encoding="UTF-8" standalone="no" ?>
<gpx xmlns="http://www.topografix.com/GPX/1/1" xmlns:xsi="http://www.w3.org/2001/XMLSchema-instance" xsi:schemaLocation="http://www.topografix.com/GPX/1/1 http://www.topografix.com/GPX/1/1/gpx.xsd" version="1.1" creator="VisuGPX - https://www.visugpx.com">
  <metadata>
    <name>CLM Michel Etiemble le 24 Septembre 2023</name>
  </metadata>
  <wpt lat="48.60434" lon="-3.01574">
    <ele>97</ele>
  </wpt>
  <wpt lat="48.60517" lon="-3.01689">
    <ele>93.8</ele>
  </wpt>
  <wpt lat="48.60453" lon="-3.01794">
    <ele>91.1</ele>
  </wpt>
  <wpt lat="48.60469" lon="-3.0182">
    <ele>90.8</ele>
  </wpt>
  <wpt lat="48.60712" lon="-3.01848">
    <ele>78.8</ele>
  </wpt>
  <wpt lat="48.60521" lon="-3.01693">
    <ele>93.8</ele>
  </wpt>
  <wpt lat="48.60705" lon="-3.01384">
    <ele>92.9</ele>
  </wpt>
  <wpt lat="48.60811" lon="-3.00872">
    <ele>95.5</ele>
  </wpt>
  <wpt lat="48.60855" lon="-3.0055">
    <ele>94.8</ele>
  </wpt>
  <wpt lat="48.6102" lon="-3.00191">
    <ele>91.8</ele>
  </wpt>
  <wpt lat="48.60863" lon="-3.00065">
    <ele>92.1</ele>
  </wpt>
  <wpt lat="48.60473" lon="-2.99701">
    <ele>86</ele>
  </wpt>
  <wpt lat="48.60383" lon="-2.99801">
    <ele>86.3</ele>
  </wpt>
  <wpt lat="48.60317" lon="-3.00848">
    <ele>99</ele>
  </wpt>
  <wpt lat="48.6033" lon="-3.01422">
    <ele>98</ele>
  </wpt>
  <trk>
    <name><![CDATA[CLM Michel Etiemble]]></name>
    <extensions>
      <line xmlns="http://www.topografix.com/GPX/gpx_style/0/2">
        <color>0000FF</color>
        <width>4</width>
      </line>
    </extensions>
    <trkseg>
      <trkpt lat="48.60386" lon="-3.01525">
        <ele>97</ele>
        <time>2023-01-31T15:53:04.000Z</time>
      </trkpt>
      <trkpt lat="48.60391" lon="-3.0153">
        <ele>97</ele>
        <time>2023-01-31T15:53:04.581Z</time>
      </trkpt>
      <trkpt lat="48.60397" lon="-3.01536">
        <ele>97</ele>
        <time>2023-01-31T15:53:05.279Z</time>
      </trkpt>
      <trkpt lat="48.60402" lon="-3.01541">
        <ele>97</ele>
        <time>2023-01-31T15:53:05.860Z</time>
      </trkpt>
      <trkpt lat="48.60407" lon="-3.01546">
        <ele>97</ele>
        <time>2023-01-31T15:53:06.442Z</time>
      </trkpt>
      <trkpt lat="48.60414" lon="-3.01553">
        <ele>97</ele>
        <time>2023-01-31T15:53:07.255Z</time>
      </trkpt>
      <trkpt lat="48.60421" lon="-3.01559">
        <ele>97</ele>
        <time>2023-01-31T15:53:08.036Z</time>
      </trkpt>
      <trkpt lat="48.60428" lon="-3.01567">
        <ele>97</ele>
        <time>2023-01-31T15:53:08.887Z</time>
      </trkpt>
      <trkpt lat="48.60435" lon="-3.01574">
        <ele>97</ele>
        <time>2023-01-31T15:53:09.700Z</time>
      </trkpt>
      <trkpt lat="48.60442" lon="-3.01583">
        <ele>97</ele>
        <time>2023-01-31T15:53:10.592Z</time>
      </trkpt>
      <trkpt lat="48.60448" lon="-3.01591">
        <ele>97</ele>
        <time>2023-01-31T15:53:11.367Z</time>
      </trkpt>
      <trkpt lat="48.60452" lon="-3.01597">
        <ele>97</ele>
        <time>2023-01-31T15:53:11.914Z</time>
      </trkpt>
      <trkpt lat="48.60455" lon="-3.01602">
        <ele>97</ele>
        <time>2023-01-31T15:53:12.347Z</time>
      </trkpt>
      <trkpt lat="48.60459" lon="-3.01608">
        <ele>97</ele>
        <time>2023-01-31T15:53:12.893Z</time>
      </trkpt>
      <trkpt lat="48.60462" lon="-3.01613">
        <ele>96.9</ele>
        <time>2023-01-31T15:53:13.248Z</time>
      </trkpt>
      <trkpt lat="48.60468" lon="-3.01621">
        <ele>96.6</ele>
        <time>2023-01-31T15:53:13.814Z</time>
      </trkpt>
      <trkpt lat="48.60474" lon="-3.01629">
        <ele>96.3</ele>
        <time>2023-01-31T15:53:14.380Z</time>
      </trkpt>
      <trkpt lat="48.60479" lon="-3.01637">
        <ele>96.1</ele>
        <time>2023-01-31T15:53:14.936Z</time>
      </trkpt>
      <trkpt lat="48.60485" lon="-3.01645">
        <ele>95.9</ele>
        <time>2023-01-31T15:53:15.559Z</time>
      </trkpt>
      <trkpt lat="48.60489" lon="-3.01651">
        <ele>95.7</ele>
        <time>2023-01-31T15:53:15.963Z</time>
      </trkpt>
      <trkpt lat="48.60493" lon="-3.01657">
        <ele>95.5</ele>
        <time>2023-01-31T15:53:16.368Z</time>
      </trkpt>
      <trkpt lat="48.60497" lon="-3.01662">
        <ele>95.3</ele>
        <time>2023-01-31T15:53:16.732Z</time>
      </trkpt>
      <trkpt lat="48.60501" lon="-3.01668">
        <ele>94.9</ele>
        <time>2023-01-31T15:53:17.060Z</time>
      </trkpt>
      <trkpt lat="48.60506" lon="-3.01675">
        <ele>94.3</ele>
        <time>2023-01-31T15:53:17.456Z</time>
      </trkpt>
      <trkpt lat="48.6051" lon="-3.01681">
        <ele>94</ele>
        <time>2023-01-31T15:53:17.813Z</time>
      </trkpt>
      <trkpt lat="48.60516" lon="-3.01689">
        <ele>93.7</ele>
        <time>2023-01-31T15:53:18.379Z</time>
      </trkpt>
      <trkpt lat="48.60514" lon="-3.01699">
        <ele>93.3</ele>
        <time>2023-01-31T15:53:18.803Z</time>
      </trkpt>
      <trkpt lat="48.60511" lon="-3.01709">
        <ele>92.9</ele>
        <time>2023-01-31T15:53:19.258Z</time>
      </trkpt>
      <trkpt lat="48.60506" lon="-3.01717">
        <ele>92.4</ele>
        <time>2023-01-31T15:53:19.681Z</time>
      </trkpt>
      <trkpt lat="48.605" lon="-3.01725">
        <ele>91.9</ele>
        <time>2023-01-31T15:53:20.159Z</time>
      </trkpt>
      <trkpt lat="48.60495" lon="-3.01733">
        <ele>91.6</ele>
        <time>2023-01-31T15:53:20.660Z</time>
      </trkpt>
      <trkpt lat="48.60489" lon="-3.01741">
        <ele>91.3</ele>
        <time>2023-01-31T15:53:21.226Z</time>
      </trkpt>
      <trkpt lat="48.60485" lon="-3.01748">
        <ele>91.1</ele>
        <time>2023-01-31T15:53:21.675Z</time>
      </trkpt>
      <trkpt lat="48.60481" lon="-3.01755">
        <ele>90.8</ele>
        <time>2023-01-31T15:53:22.073Z</time>
      </trkpt>
      <trkpt lat="48.60477" lon="-3.01761">
        <ele>90.6</ele>
        <time>2023-01-31T15:53:22.478Z</time>
      </trkpt>
      <trkpt lat="48.60473" lon="-3.01768">
        <ele>90.4</ele>
        <time>2023-01-31T15:53:22.926Z</time>
      </trkpt>
      <trkpt lat="48.60469" lon="-3.01773">
        <ele>90.3</ele>
        <time>2023-01-31T15:53:23.350Z</time>
      </trkpt>
      <trkpt lat="48.60466" lon="-3.01777">
        <ele>90.3</ele>
        <time>2023-01-31T15:53:23.738Z</time>
      </trkpt>
      <trkpt lat="48.60462" lon="-3.01782">
        <ele>90.4</ele>
        <time>2023-01-31T15:53:24.350Z</time>
      </trkpt>
      <trkpt lat="48.60458" lon="-3.01786">
        <ele>90.7</ele>
        <time>2023-01-31T15:53:25.306Z</time>
      </trkpt>
      <trkpt lat="48.60452" lon="-3.01791">
        <ele>91.1</ele>
        <time>2023-01-31T15:53:26.598Z</time>
      </trkpt>
      <trkpt lat="48.60453" lon="-3.01797">
        <ele>91.2</ele>
        <time>2023-01-31T15:53:27.108Z</time>
      </trkpt>
      <trkpt lat="48.60457" lon="-3.01805">
        <ele>91.1</ele>
        <time>2023-01-31T15:53:27.669Z</time>
      </trkpt>
      <trkpt lat="48.60461" lon="-3.01812">
        <ele>91</ele>
        <time>2023-01-31T15:53:28.181Z</time>
      </trkpt>
      <trkpt lat="48.60469" lon="-3.01818">
        <ele>90.7</ele>
        <time>2023-01-31T15:53:28.831Z</time>
      </trkpt>
      <trkpt lat="48.60477" lon="-3.0182">
        <ele>90.3</ele>
        <time>2023-01-31T15:53:29.359Z</time>
      </trkpt>
      <trkpt lat="48.60482" lon="-3.0182">
        <ele>90.2</ele>
        <time>2023-01-31T15:53:29.764Z</time>
      </trkpt>
      <trkpt lat="48.60487" lon="-3.0182">
        <ele>90</ele>
        <time>2023-01-31T15:53:30.112Z</time>
      </trkpt>
      <trkpt lat="48.60492" lon="-3.0182">
        <ele>89.8</ele>
        <time>2023-01-31T15:53:30.459Z</time>
      </trkpt>
      <trkpt lat="48.60497" lon="-3.0182">
        <ele>89.6</ele>
        <time>2023-01-31T15:53:30.806Z</time>
      </trkpt>
      <trkpt lat="48.60505" lon="-3.0182">
        <ele>89.3</ele>
        <time>2023-01-31T15:53:31.372Z</time>
      </trkpt>
      <trkpt lat="48.60513" lon="-3.0182">
        <ele>88.8</ele>
        <time>2023-01-31T15:53:31.850Z</time>
      </trkpt>
      <trkpt lat="48.60518" lon="-3.0182">
        <ele>88.6</ele>
        <time>2023-01-31T15:53:32.197Z</time>
      </trkpt>
      <trkpt lat="48.60523" lon="-3.0182">
        <ele>88.3</ele>
        <time>2023-01-31T15:53:32.500Z</time>
      </trkpt>
      <trkpt lat="48.60531" lon="-3.01823">
        <ele>88.1</ele>
        <time>2023-01-31T15:53:33.146Z</time>
      </trkpt>
      <trkpt lat="48.60538" lon="-3.01825">
        <ele>87.9</ele>
        <time>2023-01-31T15:53:33.688Z</time>
      </trkpt>
      <trkpt lat="48.60546" lon="-3.01828">
        <ele>87.6</ele>
        <time>2023-01-31T15:53:34.275Z</time>
      </trkpt>
      <trkpt lat="48.60554" lon="-3.0183">
        <ele>87.1</ele>
        <time>2023-01-31T15:53:34.762Z</time>
      </trkpt>
      <trkpt lat="48.60561" lon="-3.01833">
        <ele>86.6</ele>
        <time>2023-01-31T15:53:35.185Z</time>
      </trkpt>
      <trkpt lat="48.60569" lon="-3.01835">
        <ele>86.1</ele>
        <time>2023-01-31T15:53:35.672Z</time>
      </trkpt>
      <trkpt lat="48.60578" lon="-3.01838">
        <ele>85.5</ele>
        <time>2023-01-31T15:53:36.213Z</time>
      </trkpt>
      <trkpt lat="48.60587" lon="-3.0184">
        <ele>85.2</ele>
        <time>2023-01-31T15:53:36.879Z</time>
      </trkpt>
      <trkpt lat="48.60595" lon="-3.01843">
        <ele>85</ele>
        <time>2023-01-31T15:53:37.525Z</time>
      </trkpt>
      <trkpt lat="48.60604" lon="-3.01845">
        <ele>84.8</ele>
        <time>2023-01-31T15:53:38.251Z</time>
      </trkpt>
      <trkpt lat="48.60611" lon="-3.01847">
        <ele>84.5</ele>
        <time>2023-01-31T15:53:38.738Z</time>
      </trkpt>
      <trkpt lat="48.60618" lon="-3.01849">
        <ele>84.1</ele>
        <time>2023-01-31T15:53:39.181Z</time>
      </trkpt>
      <trkpt lat="48.60625" lon="-3.0185">
        <ele>83.6</ele>
        <time>2023-01-31T15:53:39.590Z</time>
      </trkpt>
      <trkpt lat="48.60632" lon="-3.01852">
        <ele>83.1</ele>
        <time>2023-01-31T15:53:40.005Z</time>
      </trkpt>
      <trkpt lat="48.60639" lon="-3.01854">
        <ele>82.6</ele>
        <time>2023-01-31T15:53:40.419Z</time>
      </trkpt>
      <trkpt lat="48.60645" lon="-3.01855">
        <ele>82</ele>
        <time>2023-01-31T15:53:40.771Z</time>
      </trkpt>
      <trkpt lat="48.60653" lon="-3.01856">
        <ele>81.5</ele>
        <time>2023-01-31T15:53:41.251Z</time>
      </trkpt>
      <trkpt lat="48.6066" lon="-3.01856">
        <ele>81</ele>
        <time>2023-01-31T15:53:41.658Z</time>
      </trkpt>
      <trkpt lat="48.60666" lon="-3.01855">
        <ele>80.7</ele>
        <time>2023-01-31T15:53:42.049Z</time>
      </trkpt>
      <trkpt lat="48.60672" lon="-3.01855">
        <ele>80.4</ele>
        <time>2023-01-31T15:53:42.438Z</time>
      </trkpt>
      <trkpt lat="48.60678" lon="-3.01854">
        <ele>80.2</ele>
        <time>2023-01-31T15:53:42.879Z</time>
      </trkpt>
      <trkpt lat="48.60684" lon="-3.01853">
        <ele>79.9</ele>
        <time>2023-01-31T15:53:43.271Z</time>
      </trkpt>
      <trkpt lat="48.6069" lon="-3.01852">
        <ele>79.6</ele>
        <time>2023-01-31T15:53:43.662Z</time>
      </trkpt>
      <trkpt lat="48.60696" lon="-3.01852">
        <ele>79.3</ele>
        <time>2023-01-31T15:53:44.051Z</time>
      </trkpt>
      <trkpt lat="48.60702" lon="-3.01851">
        <ele>79.1</ele>
        <time>2023-01-31T15:53:44.492Z</time>
      </trkpt>
      <trkpt lat="48.60708" lon="-3.0185">
        <ele>78.9</ele>
        <time>2023-01-31T15:53:44.933Z</time>
      </trkpt>
      <trkpt lat="48.60711" lon="-3.01849">
        <ele>78.8</ele>
        <time>2023-01-31T15:53:45.159Z</time>
      </trkpt>
      <trkpt lat="48.60712" lon="-3.01844">
        <ele>79</ele>
        <time>2023-01-31T15:53:45.806Z</time>
      </trkpt>
      <trkpt lat="48.60704" lon="-3.01839">
        <ele>79.5</ele>
        <time>2023-01-31T15:53:47.425Z</time>
      </trkpt>
      <trkpt lat="48.60696" lon="-3.01833">
        <ele>80</ele>
        <time>2023-01-31T15:53:49.057Z</time>
      </trkpt>
      <trkpt lat="48.60691" lon="-3.01829">
        <ele>80.8</ele>
        <time>2023-01-31T15:53:51.408Z</time>
      </trkpt>
      <trkpt lat="48.60685" lon="-3.01826">
        <ele>81.8</ele>
        <time>2023-01-31T15:53:54.035Z</time>
      </trkpt>
      <trkpt lat="48.6068" lon="-3.01822">
        <ele>82.6</ele>
        <time>2023-01-31T15:53:56.386Z</time>
      </trkpt>
      <trkpt lat="48.60674" lon="-3.01818">
        <ele>83.5</ele>
        <time>2023-01-31T15:53:59.111Z</time>
      </trkpt>
      <trkpt lat="48.60667" lon="-3.01813">
        <ele>84.4</ele>
        <time>2023-01-31T15:54:02.097Z</time>
      </trkpt>
      <trkpt lat="48.60662" lon="-3.01809">
        <ele>84.9</ele>
        <time>2023-01-31T15:54:03.696Z</time>
      </trkpt>
      <trkpt lat="48.60657" lon="-3.01806">
        <ele>85.4</ele>
        <time>2023-01-31T15:54:05.310Z</time>
      </trkpt>
      <trkpt lat="48.60652" lon="-3.01802">
        <ele>85.7</ele>
        <time>2023-01-31T15:54:06.305Z</time>
      </trkpt>
      <trkpt lat="48.60647" lon="-3.01798">
        <ele>86.2</ele>
        <time>2023-01-31T15:54:07.904Z</time>
      </trkpt>
      <trkpt lat="48.60639" lon="-3.01792">
        <ele>87</ele>
        <time>2023-01-31T15:54:10.469Z</time>
      </trkpt>
      <trkpt lat="48.60631" lon="-3.01786">
        <ele>88</ele>
        <time>2023-01-31T15:54:13.791Z</time>
      </trkpt>
      <trkpt lat="48.60626" lon="-3.01782">
        <ele>88.6</ele>
        <time>2023-01-31T15:54:15.775Z</time>
      </trkpt>
      <trkpt lat="48.60622" lon="-3.01779">
        <ele>89.1</ele>
        <time>2023-01-31T15:54:17.436Z</time>
      </trkpt>
      <trkpt lat="48.60618" lon="-3.01776">
        <ele>89.6</ele>
        <time>2023-01-31T15:54:19.097Z</time>
      </trkpt>
      <trkpt lat="48.60613" lon="-3.01773">
        <ele>90</ele>
        <time>2023-01-31T15:54:20.355Z</time>
      </trkpt>
      <trkpt lat="48.60609" lon="-3.0177">
        <ele>90.3</ele>
        <time>2023-01-31T15:54:21.302Z</time>
      </trkpt>
      <trkpt lat="48.60605" lon="-3.01767">
        <ele>90.5</ele>
        <time>2023-01-31T15:54:22.010Z</time>
      </trkpt>
      <trkpt lat="48.60601" lon="-3.01765">
        <ele>90.7</ele>
        <time>2023-01-31T15:54:22.700Z</time>
      </trkpt>
      <trkpt lat="48.60596" lon="-3.01762">
        <ele>90.9</ele>
        <time>2023-01-31T15:54:23.477Z</time>
      </trkpt>
      <trkpt lat="48.60592" lon="-3.01759">
        <ele>91.1</ele>
        <time>2023-01-31T15:54:24.184Z</time>
      </trkpt>
      <trkpt lat="48.60584" lon="-3.01756">
        <ele>91.5</ele>
        <time>2023-01-31T15:54:25.553Z</time>
      </trkpt>
      <trkpt lat="48.60579" lon="-3.01754">
        <ele>91.7</ele>
        <time>2023-01-31T15:54:26.313Z</time>
      </trkpt>
      <trkpt lat="48.60573" lon="-3.01752">
        <ele>91.9</ele>
        <time>2023-01-31T15:54:27.154Z</time>
      </trkpt>
      <trkpt lat="48.60568" lon="-3.01749">
        <ele>92.1</ele>
        <time>2023-01-31T15:54:27.930Z</time>
      </trkpt>
      <trkpt lat="48.60562" lon="-3.01747">
        <ele>92.2</ele>
        <time>2023-01-31T15:54:28.632Z</time>
      </trkpt>
      <trkpt lat="48.60558" lon="-3.01743">
        <ele>92.5</ele>
        <time>2023-01-31T15:54:29.588Z</time>
      </trkpt>
      <trkpt lat="48.60551" lon="-3.01736">
        <ele>92.9</ele>
        <time>2023-01-31T15:54:30.966Z</time>
      </trkpt>
      <trkpt lat="48.60547" lon="-3.01729">
        <ele>93.3</ele>
        <time>2023-01-31T15:54:32.233Z</time>
      </trkpt>
      <trkpt lat="48.60542" lon="-3.01722">
        <ele>93.5</ele>
        <time>2023-01-31T15:54:33.131Z</time>
      </trkpt>
      <trkpt lat="48.60537" lon="-3.01716">
        <ele>93.5</ele>
        <time>2023-01-31T15:54:33.750Z</time>
      </trkpt>
      <trkpt lat="48.60532" lon="-3.01709">
        <ele>93.6</ele>
        <time>2023-01-31T15:54:34.515Z</time>
      </trkpt>
      <trkpt lat="48.60527" lon="-3.01703">
        <ele>93.7</ele>
        <time>2023-01-31T15:54:35.239Z</time>
      </trkpt>
      <trkpt lat="48.60522" lon="-3.01696">
        <ele>93.7</ele>
        <time>2023-01-31T15:54:35.900Z</time>
      </trkpt>
      <trkpt lat="48.6052" lon="-3.01694">
        <ele>93.7</ele>
        <time>2023-01-31T15:54:36.132Z</time>
      </trkpt>
      <trkpt lat="48.60522" lon="-3.01685">
        <ele>93.9</ele>
        <time>2023-01-31T15:54:36.984Z</time>
      </trkpt>
      <trkpt lat="48.60526" lon="-3.01679">
        <ele>94</ele>
        <time>2023-01-31T15:54:37.637Z</time>
      </trkpt>
      <trkpt lat="48.60531" lon="-3.01673">
        <ele>94</ele>
        <time>2023-01-31T15:54:38.256Z</time>
      </trkpt>
      <trkpt lat="48.60535" lon="-3.01666">
        <ele>94</ele>
        <time>2023-01-31T15:54:38.849Z</time>
      </trkpt>
      <trkpt lat="48.60539" lon="-3.0166">
        <ele>94</ele>
        <time>2023-01-31T15:54:39.396Z</time>
      </trkpt>
      <trkpt lat="48.60543" lon="-3.01654">
        <ele>94</ele>
        <time>2023-01-31T15:54:39.942Z</time>
      </trkpt>
      <trkpt lat="48.60547" lon="-3.01648">
        <ele>93.7</ele>
        <time>2023-01-31T15:54:40.299Z</time>
      </trkpt>
      <trkpt lat="48.60551" lon="-3.01641">
        <ele>93.4</ele>
        <time>2023-01-31T15:54:40.698Z</time>
      </trkpt>
      <trkpt lat="48.60556" lon="-3.01635">
        <ele>93</ele>
        <time>2023-01-31T15:54:41.078Z</time>
      </trkpt>
      <trkpt lat="48.6056" lon="-3.01629">
        <ele>92.9</ele>
        <time>2023-01-31T15:54:41.544Z</time>
      </trkpt>
      <trkpt lat="48.60564" lon="-3.01623">
        <ele>92.8</ele>
        <time>2023-01-31T15:54:42.010Z</time>
      </trkpt>
      <trkpt lat="48.60568" lon="-3.01616">
        <ele>92.6</ele>
        <time>2023-01-31T15:54:42.459Z</time>
      </trkpt>
      <trkpt lat="48.60572" lon="-3.0161">
        <ele>92.4</ele>
        <time>2023-01-31T15:54:42.863Z</time>
      </trkpt>
      <trkpt lat="48.60578" lon="-3.01601">
        <ele>92</ele>
        <time>2023-01-31T15:54:43.420Z</time>
      </trkpt>
      <trkpt lat="48.60584" lon="-3.01592">
        <ele>91.3</ele>
        <time>2023-01-31T15:54:43.912Z</time>
      </trkpt>
      <trkpt lat="48.60589" lon="-3.01583">
        <ele>91</ele>
        <time>2023-01-31T15:54:44.458Z</time>
      </trkpt>
      <trkpt lat="48.60595" lon="-3.01574">
        <ele>91.1</ele>
        <time>2023-01-31T15:54:45.379Z</time>
      </trkpt>
      <trkpt lat="48.606" lon="-3.01565">
        <ele>90.9</ele>
        <time>2023-01-31T15:54:45.981Z</time>
      </trkpt>
      <trkpt lat="48.60605" lon="-3.01556">
        <ele>90.4</ele>
        <time>2023-01-31T15:54:46.440Z</time>
      </trkpt>
      <trkpt lat="48.60609" lon="-3.01549">
        <ele>90.4</ele>
        <time>2023-01-31T15:54:47.033Z</time>
      </trkpt>
      <trkpt lat="48.60613" lon="-3.01542">
        <ele>90.5</ele>
        <time>2023-01-31T15:54:47.732Z</time>
      </trkpt>
      <trkpt lat="48.60617" lon="-3.01534">
        <ele>90.6</ele>
        <time>2023-01-31T15:54:48.479Z</time>
      </trkpt>
      <trkpt lat="48.60621" lon="-3.01527">
        <ele>90.7</ele>
        <time>2023-01-31T15:54:49.178Z</time>
      </trkpt>
      <trkpt lat="48.60625" lon="-3.0152">
        <ele>90.6</ele>
        <time>2023-01-31T15:54:49.690Z</time>
      </trkpt>
      <trkpt lat="48.60629" lon="-3.01513">
        <ele>90.6</ele>
        <time>2023-01-31T15:54:50.284Z</time>
      </trkpt>
      <trkpt lat="48.60633" lon="-3.01505">
        <ele>90.4</ele>
        <time>2023-01-31T15:54:50.780Z</time>
      </trkpt>
      <trkpt lat="48.60637" lon="-3.01498">
        <ele>90.2</ele>
        <time>2023-01-31T15:54:51.228Z</time>
      </trkpt>
      <trkpt lat="48.6064" lon="-3.01492">
        <ele>90.3</ele>
        <time>2023-01-31T15:54:51.820Z</time>
      </trkpt>
      <trkpt lat="48.60643" lon="-3.01487">
        <ele>90.5</ele>
        <time>2023-01-31T15:54:52.527Z</time>
      </trkpt>
      <trkpt lat="48.60646" lon="-3.01481">
        <ele>90.9</ele>
        <time>2023-01-31T15:54:53.790Z</time>
      </trkpt>
      <trkpt lat="48.60649" lon="-3.01476">
        <ele>91.2</ele>
        <time>2023-01-31T15:54:54.738Z</time>
      </trkpt>
      <trkpt lat="48.60652" lon="-3.0147">
        <ele>91.6</ele>
        <time>2023-01-31T15:54:56.001Z</time>
      </trkpt>
      <trkpt lat="48.60655" lon="-3.01464">
        <ele>91.8</ele>
        <time>2023-01-31T15:54:56.746Z</time>
      </trkpt>
      <trkpt lat="48.60658" lon="-3.01459">
        <ele>92</ele>
        <time>2023-01-31T15:54:57.453Z</time>
      </trkpt>
      <trkpt lat="48.60661" lon="-3.01453">
        <ele>92.1</ele>
        <time>2023-01-31T15:54:58.045Z</time>
      </trkpt>
      <trkpt lat="48.60666" lon="-3.01443">
        <ele>92.1</ele>
        <time>2023-01-31T15:54:58.849Z</time>
      </trkpt>
      <trkpt lat="48.6067" lon="-3.01436">
        <ele>92.3</ele>
        <time>2023-01-31T15:54:59.687Z</time>
      </trkpt>
      <trkpt lat="48.60674" lon="-3.01429">
        <ele>92.4</ele>
        <time>2023-01-31T15:55:00.386Z</time>
      </trkpt>
      <trkpt lat="48.6068" lon="-3.01422">
        <ele>92.4</ele>
        <time>2023-01-31T15:55:01.121Z</time>
      </trkpt>
      <trkpt lat="48.60685" lon="-3.01415">
        <ele>92.4</ele>
        <time>2023-01-31T15:55:01.781Z</time>
      </trkpt>
      <trkpt lat="48.60691" lon="-3.01408">
        <ele>92.5</ele>
        <time>2023-01-31T15:55:02.619Z</time>
      </trkpt>
      <trkpt lat="48.60696" lon="-3.01401">
        <ele>92.6</ele>
        <time>2023-01-31T15:55:03.384Z</time>
      </trkpt>
      <trkpt lat="48.60698" lon="-3.01394">
        <ele>92.8</ele>
        <time>2023-01-31T15:55:04.134Z</time>
      </trkpt>
      <trkpt lat="48.60702" lon="-3.01386">
        <ele>92.9</ele>
        <time>2023-01-31T15:55:04.882Z</time>
      </trkpt>
      <trkpt lat="48.60706" lon="-3.01377">
        <ele>92.6</ele>
        <time>2023-01-31T15:55:05.373Z</time>
      </trkpt>
      <trkpt lat="48.6071" lon="-3.01368">
        <ele>92.2</ele>
        <time>2023-01-31T15:55:05.820Z</time>
      </trkpt>
      <trkpt lat="48.60713" lon="-3.01358">
        <ele>91.7</ele>
        <time>2023-01-31T15:55:06.243Z</time>
      </trkpt>
      <trkpt lat="48.60715" lon="-3.01347">
        <ele>91.5</ele>
        <time>2023-01-31T15:55:06.823Z</time>
      </trkpt>
      <trkpt lat="48.60717" lon="-3.0134">
        <ele>91.4</ele>
        <time>2023-01-31T15:55:07.233Z</time>
      </trkpt>
      <trkpt lat="48.60719" lon="-3.01333">
        <ele>91.3</ele>
        <time>2023-01-31T15:55:07.643Z</time>
      </trkpt>
      <trkpt lat="48.60721" lon="-3.01326">
        <ele>91.1</ele>
        <time>2023-01-31T15:55:07.994Z</time>
      </trkpt>
      <trkpt lat="48.60723" lon="-3.0132">
        <ele>91</ele>
        <time>2023-01-31T15:55:08.347Z</time>
      </trkpt>
      <trkpt lat="48.60724" lon="-3.01313">
        <ele>91.1</ele>
        <time>2023-01-31T15:55:08.916Z</time>
      </trkpt>
      <trkpt lat="48.60726" lon="-3.01306">
        <ele>91.1</ele>
        <time>2023-01-31T15:55:09.405Z</time>
      </trkpt>
      <trkpt lat="48.60728" lon="-3.01299">
        <ele>91.3</ele>
        <time>2023-01-31T15:55:10.155Z</time>
      </trkpt>
      <trkpt lat="48.6073" lon="-3.01292">
        <ele>91.5</ele>
        <time>2023-01-31T15:55:10.906Z</time>
      </trkpt>
      <trkpt lat="48.60732" lon="-3.01285">
        <ele>91.6</ele>
        <time>2023-01-31T15:55:11.504Z</time>
      </trkpt>
      <trkpt lat="48.60733" lon="-3.01277">
        <ele>91.6</ele>
        <time>2023-01-31T15:55:12.026Z</time>
      </trkpt>
      <trkpt lat="48.60735" lon="-3.0127">
        <ele>91.7</ele>
        <time>2023-01-31T15:55:12.624Z</time>
      </trkpt>
      <trkpt lat="48.60736" lon="-3.01262">
        <ele>91.8</ele>
        <time>2023-01-31T15:55:13.253Z</time>
      </trkpt>
      <trkpt lat="48.60739" lon="-3.0125">
        <ele>91.8</ele>
        <time>2023-01-31T15:55:14.076Z</time>
      </trkpt>
      <trkpt lat="48.60741" lon="-3.01238">
        <ele>91.8</ele>
        <time>2023-01-31T15:55:14.870Z</time>
      </trkpt>
      <trkpt lat="48.60743" lon="-3.01227">
        <ele>91.7</ele>
        <time>2023-01-31T15:55:15.518Z</time>
      </trkpt>
      <trkpt lat="48.60746" lon="-3.01216">
        <ele>91.5</ele>
        <time>2023-01-31T15:55:16.129Z</time>
      </trkpt>
      <trkpt lat="48.60748" lon="-3.01205">
        <ele>91.2</ele>
        <time>2023-01-31T15:55:16.654Z</time>
      </trkpt>
      <trkpt lat="48.6075" lon="-3.01194">
        <ele>91</ele>
        <time>2023-01-31T15:55:17.234Z</time>
      </trkpt>
      <trkpt lat="48.60752" lon="-3.01188">
        <ele>91.3</ele>
        <time>2023-01-31T15:55:18.181Z</time>
      </trkpt>
      <trkpt lat="48.60754" lon="-3.01181">
        <ele>91.5</ele>
        <time>2023-01-31T15:55:18.931Z</time>
      </trkpt>
      <trkpt lat="48.60756" lon="-3.01175">
        <ele>91.7</ele>
        <time>2023-01-31T15:55:19.637Z</time>
      </trkpt>
      <trkpt lat="48.60758" lon="-3.01168">
        <ele>92</ele>
        <time>2023-01-31T15:55:20.602Z</time>
      </trkpt>
      <trkpt lat="48.6076" lon="-3.01162">
        <ele>92.2</ele>
        <time>2023-01-31T15:55:21.308Z</time>
      </trkpt>
      <trkpt lat="48.60762" lon="-3.01155">
        <ele>92.5</ele>
        <time>2023-01-31T15:55:22.273Z</time>
      </trkpt>
      <trkpt lat="48.60764" lon="-3.01149">
        <ele>92.6</ele>
        <time>2023-01-31T15:55:22.815Z</time>
      </trkpt>
      <trkpt lat="48.60766" lon="-3.01142">
        <ele>92.8</ele>
        <time>2023-01-31T15:55:23.566Z</time>
      </trkpt>
      <trkpt lat="48.6077" lon="-3.0113">
        <ele>92.7</ele>
        <time>2023-01-31T15:55:24.343Z</time>
      </trkpt>
      <trkpt lat="48.60774" lon="-3.01118">
        <ele>92.4</ele>
        <time>2023-01-31T15:55:24.989Z</time>
      </trkpt>
      <trkpt lat="48.60777" lon="-3.01106">
        <ele>92.4</ele>
        <time>2023-01-31T15:55:25.812Z</time>
      </trkpt>
      <trkpt lat="48.60781" lon="-3.01094">
        <ele>93.2</ele>
        <time>2023-01-31T15:55:28.379Z</time>
      </trkpt>
      <trkpt lat="48.60784" lon="-3.01086">
        <ele>93.7</ele>
        <time>2023-01-31T15:55:29.962Z</time>
      </trkpt>
      <trkpt lat="48.60786" lon="-3.01077">
        <ele>93.9</ele>
        <time>2023-01-31T15:55:30.813Z</time>
      </trkpt>
      <trkpt lat="48.60789" lon="-3.01069">
        <ele>93.9</ele>
        <time>2023-01-31T15:55:31.403Z</time>
      </trkpt>
      <trkpt lat="48.60791" lon="-3.0106">
        <ele>94</ele>
        <time>2023-01-31T15:55:32.117Z</time>
      </trkpt>
      <trkpt lat="48.60792" lon="-3.01053">
        <ele>94.1</ele>
        <time>2023-01-31T15:55:32.687Z</time>
      </trkpt>
      <trkpt lat="48.60793" lon="-3.01045">
        <ele>94.3</ele>
        <time>2023-01-31T15:55:33.464Z</time>
      </trkpt>
      <trkpt lat="48.60794" lon="-3.01038">
        <ele>94.5</ele>
        <time>2023-01-31T15:55:34.191Z</time>
      </trkpt>
      <trkpt lat="48.60795" lon="-3.0103">
        <ele>94.7</ele>
        <time>2023-01-31T15:55:34.968Z</time>
      </trkpt>
      <trkpt lat="48.60796" lon="-3.01022">
        <ele>94.7</ele>
        <time>2023-01-31T15:55:35.490Z</time>
      </trkpt>
      <trkpt lat="48.60797" lon="-3.01013">
        <ele>94.6</ele>
        <time>2023-01-31T15:55:35.994Z</time>
      </trkpt>
      <trkpt lat="48.60798" lon="-3.01003">
        <ele>94.5</ele>
        <time>2023-01-31T15:55:36.560Z</time>
      </trkpt>
      <trkpt lat="48.60799" lon="-3.0099">
        <ele>94.8</ele>
        <time>2023-01-31T15:55:37.773Z</time>
      </trkpt>
      <trkpt lat="48.60799" lon="-3.00977">
        <ele>95.1</ele>
        <time>2023-01-31T15:55:38.982Z</time>
      </trkpt>
      <trkpt lat="48.608" lon="-3.00964">
        <ele>95.2</ele>
        <time>2023-01-31T15:55:39.922Z</time>
      </trkpt>
      <trkpt lat="48.608" lon="-3.00951">
        <ele>95.2</ele>
        <time>2023-01-31T15:55:40.756Z</time>
      </trkpt>
      <trkpt lat="48.60801" lon="-3.0094">
        <ele>95.2</ele>
        <time>2023-01-31T15:55:41.468Z</time>
      </trkpt>
      <trkpt lat="48.60801" lon="-3.00929">
        <ele>95.2</ele>
        <time>2023-01-31T15:55:42.173Z</time>
      </trkpt>
      <trkpt lat="48.60802" lon="-3.00921">
        <ele>95.1</ele>
        <time>2023-01-31T15:55:42.615Z</time>
      </trkpt>
      <trkpt lat="48.60804" lon="-3.00913">
        <ele>95.1</ele>
        <time>2023-01-31T15:55:43.164Z</time>
      </trkpt>
      <trkpt lat="48.60805" lon="-3.00905">
        <ele>95</ele>
        <time>2023-01-31T15:55:43.606Z</time>
      </trkpt>
      <trkpt lat="48.60806" lon="-3.00897">
        <ele>95</ele>
        <time>2023-01-31T15:55:44.128Z</time>
      </trkpt>
      <trkpt lat="48.60808" lon="-3.00887">
        <ele>95.1</ele>
        <time>2023-01-31T15:55:44.902Z</time>
      </trkpt>
      <trkpt lat="48.6081" lon="-3.00876">
        <ele>95.4</ele>
        <time>2023-01-31T15:55:46.026Z</time>
      </trkpt>
      <trkpt lat="48.60812" lon="-3.00866">
        <ele>95.6</ele>
        <time>2023-01-31T15:55:46.932Z</time>
      </trkpt>
      <trkpt lat="48.60814" lon="-3.00855">
        <ele>95.9</ele>
        <time>2023-01-31T15:55:48.056Z</time>
      </trkpt>
      <trkpt lat="48.60816" lon="-3.00846">
        <ele>96.2</ele>
        <time>2023-01-31T15:55:49.089Z</time>
      </trkpt>
      <trkpt lat="48.60817" lon="-3.00836">
        <ele>96.5</ele>
        <time>2023-01-31T15:55:50.149Z</time>
      </trkpt>
      <trkpt lat="48.60819" lon="-3.00827">
        <ele>96.5</ele>
        <time>2023-01-31T15:55:50.758Z</time>
      </trkpt>
      <trkpt lat="48.6082" lon="-3.00817">
        <ele>96.5</ele>
        <time>2023-01-31T15:55:51.406Z</time>
      </trkpt>
      <trkpt lat="48.60821" lon="-3.00809">
        <ele>96.5</ele>
        <time>2023-01-31T15:55:51.928Z</time>
      </trkpt>
      <trkpt lat="48.60821" lon="-3.00801">
        <ele>96.4</ele>
        <time>2023-01-31T15:55:52.362Z</time>
      </trkpt>
      <trkpt lat="48.60822" lon="-3.00793">
        <ele>96.2</ele>
        <time>2023-01-31T15:55:52.743Z</time>
      </trkpt>
      <trkpt lat="48.60822" lon="-3.00785">
        <ele>96</ele>
        <time>2023-01-31T15:55:53.117Z</time>
      </trkpt>
      <trkpt lat="48.60823" lon="-3.00772">
        <ele>95.7</ele>
        <time>2023-01-31T15:55:53.742Z</time>
      </trkpt>
      <trkpt lat="48.60824" lon="-3.00759">
        <ele>95.7</ele>
        <time>2023-01-31T15:55:54.581Z</time>
      </trkpt>
      <trkpt lat="48.60825" lon="-3.00745">
        <ele>95.5</ele>
        <time>2023-01-31T15:55:55.328Z</time>
      </trkpt>
      <trkpt lat="48.60826" lon="-3.00732">
        <ele>95.4</ele>
        <time>2023-01-31T15:55:56.082Z</time>
      </trkpt>
      <trkpt lat="48.60827" lon="-3.00724">
        <ele>95.3</ele>
        <time>2023-01-31T15:55:56.525Z</time>
      </trkpt>
      <trkpt lat="48.60828" lon="-3.00716">
        <ele>95.2</ele>
        <time>2023-01-31T15:55:56.967Z</time>
      </trkpt>
      <trkpt lat="48.60828" lon="-3.00707">
        <ele>95.2</ele>
        <time>2023-01-31T15:55:57.544Z</time>
      </trkpt>
      <trkpt lat="48.60829" lon="-3.00699">
        <ele>95.2</ele>
        <time>2023-01-31T15:55:58.066Z</time>
      </trkpt>
      <trkpt lat="48.6083" lon="-3.00689">
        <ele>95.1</ele>
        <time>2023-01-31T15:55:58.632Z</time>
      </trkpt>
      <trkpt lat="48.60831" lon="-3.00679">
        <ele>95.1</ele>
        <time>2023-01-31T15:55:59.281Z</time>
      </trkpt>
      <trkpt lat="48.60832" lon="-3.00669">
        <ele>95</ele>
        <time>2023-01-31T15:55:59.847Z</time>
      </trkpt>
      <trkpt lat="48.60833" lon="-3.00659">
        <ele>95</ele>
        <time>2023-01-31T15:56:00.496Z</time>
      </trkpt>
      <trkpt lat="48.60834" lon="-3.00646">
        <ele>95</ele>
        <time>2023-01-31T15:56:01.335Z</time>
      </trkpt>
      <trkpt lat="48.60835" lon="-3.00632">
        <ele>95.1</ele>
        <time>2023-01-31T15:56:02.339Z</time>
      </trkpt>
      <trkpt lat="48.60837" lon="-3.00625">
        <ele>95.1</ele>
        <time>2023-01-31T15:56:02.828Z</time>
      </trkpt>
      <trkpt lat="48.60839" lon="-3.00617">
        <ele>95.2</ele>
        <time>2023-01-31T15:56:03.483Z</time>
      </trkpt>
      <trkpt lat="48.6084" lon="-3.0061">
        <ele>95.2</ele>
        <time>2023-01-31T15:56:03.942Z</time>
      </trkpt>
      <trkpt lat="48.60842" lon="-3.00602">
        <ele>95.3</ele>
        <time>2023-01-31T15:56:04.597Z</time>
      </trkpt>
      <trkpt lat="48.60845" lon="-3.00592">
        <ele>95.4</ele>
        <time>2023-01-31T15:56:05.405Z</time>
      </trkpt>
      <trkpt lat="48.60847" lon="-3.00582">
        <ele>95.5</ele>
        <time>2023-01-31T15:56:06.179Z</time>
      </trkpt>
      <trkpt lat="48.6085" lon="-3.00571">
        <ele>95.3</ele>
        <time>2023-01-31T15:56:06.790Z</time>
      </trkpt>
      <trkpt lat="48.60852" lon="-3.00561">
        <ele>95.1</ele>
        <time>2023-01-31T15:56:07.311Z</time>
      </trkpt>
      <trkpt lat="48.60854" lon="-3.0055">
        <ele>94.8</ele>
        <time>2023-01-31T15:56:07.836Z</time>
      </trkpt>
      <trkpt lat="48.60859" lon="-3.0054">
        <ele>94.4</ele>
        <time>2023-01-31T15:56:08.379Z</time>
      </trkpt>
      <trkpt lat="48.60863" lon="-3.00531">
        <ele>94.1</ele>
        <time>2023-01-31T15:56:08.870Z</time>
      </trkpt>
      <trkpt lat="48.60868" lon="-3.00521">
        <ele>94</ele>
        <time>2023-01-31T15:56:09.590Z</time>
      </trkpt>
      <trkpt lat="48.60872" lon="-3.00511">
        <ele>94</ele>
        <time>2023-01-31T15:56:10.340Z</time>
      </trkpt>
      <trkpt lat="48.60877" lon="-3.005">
        <ele>94</ele>
        <time>2023-01-31T15:56:11.196Z</time>
      </trkpt>
      <trkpt lat="48.60882" lon="-3.0049">
        <ele>94</ele>
        <time>2023-01-31T15:56:12.000Z</time>
      </trkpt>
      <trkpt lat="48.60886" lon="-3.00479">
        <ele>94</ele>
        <time>2023-01-31T15:56:12.805Z</time>
      </trkpt>
      <trkpt lat="48.60891" lon="-3.00468">
        <ele>93.8</ele>
        <time>2023-01-31T15:56:13.505Z</time>
      </trkpt>
      <trkpt lat="48.60896" lon="-3.00457">
        <ele>93.3</ele>
        <time>2023-01-31T15:56:14.052Z</time>
      </trkpt>
      <trkpt lat="48.60901" lon="-3.00446">
        <ele>93</ele>
        <time>2023-01-31T15:56:14.693Z</time>
      </trkpt>
      <trkpt lat="48.60904" lon="-3.00439">
        <ele>93</ele>
        <time>2023-01-31T15:56:15.228Z</time>
      </trkpt>
      <trkpt lat="48.60907" lon="-3.00432">
        <ele>93</ele>
        <time>2023-01-31T15:56:15.763Z</time>
      </trkpt>
      <trkpt lat="48.6091" lon="-3.00425">
        <ele>93</ele>
        <time>2023-01-31T15:56:16.298Z</time>
      </trkpt>
      <trkpt lat="48.60914" lon="-3.00419">
        <ele>93</ele>
        <time>2023-01-31T15:56:16.844Z</time>
      </trkpt>
      <trkpt lat="48.60917" lon="-3.00412">
        <ele>93</ele>
        <time>2023-01-31T15:56:17.379Z</time>
      </trkpt>
      <trkpt lat="48.6092" lon="-3.00405">
        <ele>93</ele>
        <time>2023-01-31T15:56:17.914Z</time>
      </trkpt>
      <trkpt lat="48.60923" lon="-3.00398">
        <ele>93</ele>
        <time>2023-01-31T15:56:18.449Z</time>
      </trkpt>
      <trkpt lat="48.60926" lon="-3.00391">
        <ele>93</ele>
        <time>2023-01-31T15:56:18.984Z</time>
      </trkpt>
      <trkpt lat="48.60929" lon="-3.00385">
        <ele>93</ele>
        <time>2023-01-31T15:56:19.466Z</time>
      </trkpt>
      <trkpt lat="48.60932" lon="-3.00378">
        <ele>93</ele>
        <time>2023-01-31T15:56:20.001Z</time>
      </trkpt>
      <trkpt lat="48.60935" lon="-3.00372">
        <ele>93</ele>
        <time>2023-01-31T15:56:20.483Z</time>
      </trkpt>
      <trkpt lat="48.60938" lon="-3.00366">
        <ele>93</ele>
        <time>2023-01-31T15:56:20.966Z</time>
      </trkpt>
      <trkpt lat="48.6094" lon="-3.0036">
        <ele>93</ele>
        <time>2023-01-31T15:56:21.396Z</time>
      </trkpt>
      <trkpt lat="48.60943" lon="-3.00354">
        <ele>92.8</ele>
        <time>2023-01-31T15:56:21.741Z</time>
      </trkpt>
      <trkpt lat="48.60946" lon="-3.00348">
        <ele>92.6</ele>
        <time>2023-01-31T15:56:22.086Z</time>
      </trkpt>
      <trkpt lat="48.60949" lon="-3.00342">
        <ele>92.4</ele>
        <time>2023-01-31T15:56:22.431Z</time>
      </trkpt>
      <trkpt lat="48.60951" lon="-3.00336">
        <ele>92.3</ele>
        <time>2023-01-31T15:56:22.784Z</time>
      </trkpt>
      <trkpt lat="48.60954" lon="-3.0033">
        <ele>92.4</ele>
        <time>2023-01-31T15:56:23.376Z</time>
      </trkpt>
      <trkpt lat="48.60958" lon="-3.00322">
        <ele>92.7</ele>
        <time>2023-01-31T15:56:24.432Z</time>
      </trkpt>
      <trkpt lat="48.60962" lon="-3.00315">
        <ele>92.9</ele>
        <time>2023-01-31T15:56:25.270Z</time>
      </trkpt>
      <trkpt lat="48.60966" lon="-3.00307">
        <ele>93</ele>
        <time>2023-01-31T15:56:26.018Z</time>
      </trkpt>
      <trkpt lat="48.6097" lon="-3.00299">
        <ele>92.8</ele>
        <time>2023-01-31T15:56:26.514Z</time>
      </trkpt>
      <trkpt lat="48.60975" lon="-3.00288">
        <ele>92.3</ele>
        <time>2023-01-31T15:56:27.061Z</time>
      </trkpt>
      <trkpt lat="48.6098" lon="-3.00277">
        <ele>92</ele>
        <time>2023-01-31T15:56:27.702Z</time>
      </trkpt>
      <trkpt lat="48.60985" lon="-3.00266">
        <ele>92</ele>
        <time>2023-01-31T15:56:28.557Z</time>
      </trkpt>
      <trkpt lat="48.6099" lon="-3.00255">
        <ele>92</ele>
        <time>2023-01-31T15:56:29.413Z</time>
      </trkpt>
      <trkpt lat="48.60994" lon="-3.00248">
        <ele>92</ele>
        <time>2023-01-31T15:56:30.007Z</time>
      </trkpt>
      <trkpt lat="48.60997" lon="-3.0024">
        <ele>92</ele>
        <time>2023-01-31T15:56:30.596Z</time>
      </trkpt>
      <trkpt lat="48.61001" lon="-3.00233">
        <ele>92</ele>
        <time>2023-01-31T15:56:31.190Z</time>
      </trkpt>
      <trkpt lat="48.61004" lon="-3.00225">
        <ele>92</ele>
        <time>2023-01-31T15:56:31.779Z</time>
      </trkpt>
      <trkpt lat="48.61007" lon="-3.0022">
        <ele>92</ele>
        <time>2023-01-31T15:56:32.212Z</time>
      </trkpt>
      <trkpt lat="48.6101" lon="-3.00214">
        <ele>92</ele>
        <time>2023-01-31T15:56:32.695Z</time>
      </trkpt>
      <trkpt lat="48.61012" lon="-3.00209">
        <ele>92</ele>
        <time>2023-01-31T15:56:33.069Z</time>
      </trkpt>
      <trkpt lat="48.61015" lon="-3.00203">
        <ele>92</ele>
        <time>2023-01-31T15:56:33.552Z</time>
      </trkpt>
      <trkpt lat="48.61016" lon="-3.00198">
        <ele>92</ele>
        <time>2023-01-31T15:56:33.887Z</time>
      </trkpt>
      <trkpt lat="48.61018" lon="-3.00193">
        <ele>91.9</ele>
        <time>2023-01-31T15:56:34.186Z</time>
      </trkpt>
      <trkpt lat="48.61017" lon="-3.00189">
        <ele>91.7</ele>
        <time>2023-01-31T15:56:34.350Z</time>
      </trkpt>
      <trkpt lat="48.61014" lon="-3.00184">
        <ele>91.4</ele>
        <time>2023-01-31T15:56:34.610Z</time>
      </trkpt>
      <trkpt lat="48.61011" lon="-3.0018">
        <ele>91.3</ele>
        <time>2023-01-31T15:56:34.921Z</time>
      </trkpt>
      <trkpt lat="48.61007" lon="-3.00175">
        <ele>91.1</ele>
        <time>2023-01-31T15:56:35.286Z</time>
      </trkpt>
      <trkpt lat="48.61004" lon="-3.0017">
        <ele>91</ele>
        <time>2023-01-31T15:56:35.641Z</time>
      </trkpt>
      <trkpt lat="48.61001" lon="-3.00165">
        <ele>91</ele>
        <time>2023-01-31T15:56:36.074Z</time>
      </trkpt>
      <trkpt lat="48.60998" lon="-3.00161">
        <ele>91.4</ele>
        <time>2023-01-31T15:56:37.384Z</time>
      </trkpt>
      <trkpt lat="48.60994" lon="-3.00156">
        <ele>91.6</ele>
        <time>2023-01-31T15:56:38.145Z</time>
      </trkpt>
      <trkpt lat="48.60991" lon="-3.00151">
        <ele>91.8</ele>
        <time>2023-01-31T15:56:38.853Z</time>
      </trkpt>
      <trkpt lat="48.60985" lon="-3.00142">
        <ele>92</ele>
        <time>2023-01-31T15:56:39.898Z</time>
      </trkpt>
      <trkpt lat="48.60979" lon="-3.00133">
        <ele>92</ele>
        <time>2023-01-31T15:56:40.717Z</time>
      </trkpt>
      <trkpt lat="48.60976" lon="-3.00127">
        <ele>92</ele>
        <time>2023-01-31T15:56:41.199Z</time>
      </trkpt>
      <trkpt lat="48.60972" lon="-3.00122">
        <ele>92</ele>
        <time>2023-01-31T15:56:41.703Z</time>
      </trkpt>
      <trkpt lat="48.60969" lon="-3.00116">
        <ele>92</ele>
        <time>2023-01-31T15:56:42.185Z</time>
      </trkpt>
      <trkpt lat="48.60965" lon="-3.0011">
        <ele>92</ele>
        <time>2023-01-31T15:56:42.731Z</time>
      </trkpt>
      <trkpt lat="48.6096" lon="-3.00102">
        <ele>92</ele>
        <time>2023-01-31T15:56:43.437Z</time>
      </trkpt>
      <trkpt lat="48.60955" lon="-3.00093">
        <ele>92</ele>
        <time>2023-01-31T15:56:44.191Z</time>
      </trkpt>
      <trkpt lat="48.60949" lon="-3.00087">
        <ele>92</ele>
        <time>2023-01-31T15:56:44.889Z</time>
      </trkpt>
      <trkpt lat="48.60943" lon="-3.0008">
        <ele>92.2</ele>
        <time>2023-01-31T15:56:45.854Z</time>
      </trkpt>
      <trkpt lat="48.60939" lon="-3.00076">
        <ele>92.4</ele>
        <time>2023-01-31T15:56:46.586Z</time>
      </trkpt>
      <trkpt lat="48.60935" lon="-3.00074">
        <ele>92.5</ele>
        <time>2023-01-31T15:56:47.107Z</time>
      </trkpt>
      <trkpt lat="48.6093" lon="-3.00071">
        <ele>92.5</ele>
        <time>2023-01-31T15:56:47.629Z</time>
      </trkpt>
      <trkpt lat="48.60925" lon="-3.0007">
        <ele>92.5</ele>
        <time>2023-01-31T15:56:48.118Z</time>
      </trkpt>
      <trkpt lat="48.6092" lon="-3.00069">
        <ele>92.5</ele>
        <time>2023-01-31T15:56:48.607Z</time>
      </trkpt>
      <trkpt lat="48.60915" lon="-3.00069">
        <ele>92.5</ele>
        <time>2023-01-31T15:56:49.092Z</time>
      </trkpt>
      <trkpt lat="48.60909" lon="-3.00069">
        <ele>92.6</ele>
        <time>2023-01-31T15:56:49.780Z</time>
      </trkpt>
      <trkpt lat="48.60905" lon="-3.00069">
        <ele>92.7</ele>
        <time>2023-01-31T15:56:50.282Z</time>
      </trkpt>
      <trkpt lat="48.609" lon="-3.00068">
        <ele>92.8</ele>
        <time>2023-01-31T15:56:50.880Z</time>
      </trkpt>
      <trkpt lat="48.60892" lon="-3.00067">
        <ele>92.9</ele>
        <time>2023-01-31T15:56:51.760Z</time>
      </trkpt>
      <trkpt lat="48.60884" lon="-3.00065">
        <ele>92.8</ele>
        <time>2023-01-31T15:56:52.463Z</time>
      </trkpt>
      <trkpt lat="48.60876" lon="-3.00064">
        <ele>92.5</ele>
        <time>2023-01-31T15:56:53.031Z</time>
      </trkpt>
      <trkpt lat="48.6087" lon="-3.00063">
        <ele>92.3</ele>
        <time>2023-01-31T15:56:53.473Z</time>
      </trkpt>
      <trkpt lat="48.60864" lon="-3.00061">
        <ele>92.1</ele>
        <time>2023-01-31T15:56:53.924Z</time>
      </trkpt>
      <trkpt lat="48.60864" lon="-3.00055">
        <ele>92.1</ele>
        <time>2023-01-31T15:56:54.308Z</time>
      </trkpt>
      <trkpt lat="48.6086" lon="-3.00046">
        <ele>92.4</ele>
        <time>2023-01-31T15:56:55.404Z</time>
      </trkpt>
      <trkpt lat="48.60855" lon="-3.00037">
        <ele>93</ele>
        <time>2023-01-31T15:56:57.293Z</time>
      </trkpt>
      <trkpt lat="48.6085" lon="-3.00027">
        <ele>93.4</ele>
        <time>2023-01-31T15:56:58.665Z</time>
      </trkpt>
      <trkpt lat="48.60846" lon="-3.00022">
        <ele>93.5</ele>
        <time>2023-01-31T15:56:59.277Z</time>
      </trkpt>
      <trkpt lat="48.60843" lon="-3.00017">
        <ele>93.5</ele>
        <time>2023-01-31T15:56:59.709Z</time>
      </trkpt>
      <trkpt lat="48.60839" lon="-3.00012">
        <ele>93.5</ele>
        <time>2023-01-31T15:57:00.213Z</time>
      </trkpt>
      <trkpt lat="48.60835" lon="-3.00007">
        <ele>93.3</ele>
        <time>2023-01-31T15:57:00.577Z</time>
      </trkpt>
      <trkpt lat="48.60831" lon="-3">
        <ele>93.1</ele>
        <time>2023-01-31T15:57:01.026Z</time>
      </trkpt>
      <trkpt lat="48.60823" lon="-2.99995">
        <ele>93.4</ele>
        <time>2023-01-31T15:57:02.239Z</time>
      </trkpt>
      <trkpt lat="48.60815" lon="-2.99989">
        <ele>93.5</ele>
        <time>2023-01-31T15:57:03.206Z</time>
      </trkpt>
      <trkpt lat="48.60808" lon="-2.99984">
        <ele>93.4</ele>
        <time>2023-01-31T15:57:03.873Z</time>
      </trkpt>
      <trkpt lat="48.608" lon="-2.99983">
        <ele>93.4</ele>
        <time>2023-01-31T15:57:04.652Z</time>
      </trkpt>
      <trkpt lat="48.60791" lon="-2.99981">
        <ele>93.3</ele>
        <time>2023-01-31T15:57:05.449Z</time>
      </trkpt>
      <trkpt lat="48.60783" lon="-2.99982">
        <ele>93.4</ele>
        <time>2023-01-31T15:57:06.330Z</time>
      </trkpt>
      <trkpt lat="48.60779" lon="-2.99983">
        <ele>93.4</ele>
        <time>2023-01-31T15:57:06.723Z</time>
      </trkpt>
      <trkpt lat="48.60774" lon="-2.99984">
        <ele>93.3</ele>
        <time>2023-01-31T15:57:07.133Z</time>
      </trkpt>
      <trkpt lat="48.6077" lon="-2.99984">
        <ele>93.1</ele>
        <time>2023-01-31T15:57:07.392Z</time>
      </trkpt>
      <trkpt lat="48.60765" lon="-2.99985">
        <ele>93</ele>
        <time>2023-01-31T15:57:07.802Z</time>
      </trkpt>
      <trkpt lat="48.60762" lon="-2.99984">
        <ele>92.9</ele>
        <time>2023-01-31T15:57:08.027Z</time>
      </trkpt>
      <trkpt lat="48.60754" lon="-2.99979">
        <ele>92.4</ele>
        <time>2023-01-31T15:57:08.560Z</time>
      </trkpt>
      <trkpt lat="48.60752" lon="-2.99977">
        <ele>92.2</ele>
        <time>2023-01-31T15:57:08.699Z</time>
      </trkpt>
      <trkpt lat="48.60748" lon="-2.99967">
        <ele>92.3</ele>
        <time>2023-01-31T15:57:09.552Z</time>
      </trkpt>
      <trkpt lat="48.60743" lon="-2.99956">
        <ele>92.7</ele>
        <time>2023-01-31T15:57:10.959Z</time>
      </trkpt>
      <trkpt lat="48.6074" lon="-2.99949">
        <ele>92.9</ele>
        <time>2023-01-31T15:57:11.747Z</time>
      </trkpt>
      <trkpt lat="48.60738" lon="-2.99943">
        <ele>93</ele>
        <time>2023-01-31T15:57:12.289Z</time>
      </trkpt>
      <trkpt lat="48.60735" lon="-2.99936">
        <ele>92.8</ele>
        <time>2023-01-31T15:57:12.683Z</time>
      </trkpt>
      <trkpt lat="48.60733" lon="-2.9993">
        <ele>92.7</ele>
        <time>2023-01-31T15:57:13.036Z</time>
      </trkpt>
      <trkpt lat="48.6073" lon="-2.99923">
        <ele>92.4</ele>
        <time>2023-01-31T15:57:13.383Z</time>
      </trkpt>
      <trkpt lat="48.60727" lon="-2.99916">
        <ele>92.2</ele>
        <time>2023-01-31T15:57:13.777Z</time>
      </trkpt>
      <trkpt lat="48.60725" lon="-2.9991">
        <ele>91.9</ele>
        <time>2023-01-31T15:57:14.035Z</time>
      </trkpt>
      <trkpt lat="48.60722" lon="-2.99903">
        <ele>91.5</ele>
        <time>2023-01-31T15:57:14.356Z</time>
      </trkpt>
      <trkpt lat="48.60719" lon="-2.99895">
        <ele>91.3</ele>
        <time>2023-01-31T15:57:14.802Z</time>
      </trkpt>
      <trkpt lat="48.60716" lon="-2.99886">
        <ele>91.3</ele>
        <time>2023-01-31T15:57:15.448Z</time>
      </trkpt>
      <trkpt lat="48.60713" lon="-2.99877">
        <ele>91.5</ele>
        <time>2023-01-31T15:57:16.333Z</time>
      </trkpt>
      <trkpt lat="48.6071" lon="-2.99868">
        <ele>91.5</ele>
        <time>2023-01-31T15:57:16.979Z</time>
      </trkpt>
      <trkpt lat="48.60706" lon="-2.99857">
        <ele>91.2</ele>
        <time>2023-01-31T15:57:17.572Z</time>
      </trkpt>
      <trkpt lat="48.60702" lon="-2.99845">
        <ele>90.7</ele>
        <time>2023-01-31T15:57:18.124Z</time>
      </trkpt>
      <trkpt lat="48.60697" lon="-2.99836">
        <ele>90.2</ele>
        <time>2023-01-31T15:57:18.583Z</time>
      </trkpt>
      <trkpt lat="48.60692" lon="-2.99825">
        <ele>90.1</ele>
        <time>2023-01-31T15:57:19.355Z</time>
      </trkpt>
      <trkpt lat="48.60688" lon="-2.99816">
        <ele>90.1</ele>
        <time>2023-01-31T15:57:20.050Z</time>
      </trkpt>
      <trkpt lat="48.60684" lon="-2.99812">
        <ele>90.1</ele>
        <time>2023-01-31T15:57:20.515Z</time>
      </trkpt>
      <trkpt lat="48.6068" lon="-2.99807">
        <ele>90</ele>
        <time>2023-01-31T15:57:20.939Z</time>
      </trkpt>
      <trkpt lat="48.60674" lon="-2.998">
        <ele>89.9</ele>
        <time>2023-01-31T15:57:21.591Z</time>
      </trkpt>
      <trkpt lat="48.60668" lon="-2.99793">
        <ele>89.6</ele>
        <time>2023-01-31T15:57:22.118Z</time>
      </trkpt>
      <trkpt lat="48.60663" lon="-2.99788">
        <ele>89.5</ele>
        <time>2023-01-31T15:57:22.619Z</time>
      </trkpt>
      <trkpt lat="48.60657" lon="-2.99782">
        <ele>89.5</ele>
        <time>2023-01-31T15:57:23.316Z</time>
      </trkpt>
      <trkpt lat="48.60652" lon="-2.99778">
        <ele>89.5</ele>
        <time>2023-01-31T15:57:23.865Z</time>
      </trkpt>
      <trkpt lat="48.60647" lon="-2.99773">
        <ele>89.6</ele>
        <time>2023-01-31T15:57:24.552Z</time>
      </trkpt>
      <trkpt lat="48.60642" lon="-2.99768">
        <ele>89.6</ele>
        <time>2023-01-31T15:57:25.133Z</time>
      </trkpt>
      <trkpt lat="48.60637" lon="-2.99762">
        <ele>89.4</ele>
        <time>2023-01-31T15:57:25.606Z</time>
      </trkpt>
      <trkpt lat="48.60632" lon="-2.99756">
        <ele>89.2</ele>
        <time>2023-01-31T15:57:26.079Z</time>
      </trkpt>
      <trkpt lat="48.60626" lon="-2.9975">
        <ele>89</ele>
        <time>2023-01-31T15:57:26.627Z</time>
      </trkpt>
      <trkpt lat="48.60619" lon="-2.99743">
        <ele>88.9</ele>
        <time>2023-01-31T15:57:27.357Z</time>
      </trkpt>
      <trkpt lat="48.60611" lon="-2.99736">
        <ele>88.5</ele>
        <time>2023-01-31T15:57:27.984Z</time>
      </trkpt>
      <trkpt lat="48.60607" lon="-2.99732">
        <ele>88.4</ele>
        <time>2023-01-31T15:57:28.370Z</time>
      </trkpt>
      <trkpt lat="48.60603" lon="-2.99728">
        <ele>88.2</ele>
        <time>2023-01-31T15:57:28.699Z</time>
      </trkpt>
      <trkpt lat="48.60598" lon="-2.99722">
        <ele>88</ele>
        <time>2023-01-31T15:57:29.172Z</time>
      </trkpt>
      <trkpt lat="48.60598" lon="-2.99722">
        <ele>88</ele>
        <time>2023-01-31T15:57:29.172Z</time>
      </trkpt>
      <trkpt lat="48.60594" lon="-2.99718">
        <ele>88.1</ele>
        <time>2023-01-31T15:57:29.747Z</time>
      </trkpt>
      <trkpt lat="48.6059" lon="-2.99713">
        <ele>88.1</ele>
        <time>2023-01-31T15:57:30.251Z</time>
      </trkpt>
      <trkpt lat="48.60586" lon="-2.99709">
        <ele>88</ele>
        <time>2023-01-31T15:57:30.637Z</time>
      </trkpt>
      <trkpt lat="48.60582" lon="-2.99704">
        <ele>88</ele>
        <time>2023-01-31T15:57:31.140Z</time>
      </trkpt>
      <trkpt lat="48.60578" lon="-2.99699">
        <ele>88</ele>
        <time>2023-01-31T15:57:31.644Z</time>
      </trkpt>
      <trkpt lat="48.60574" lon="-2.99694">
        <ele>88</ele>
        <time>2023-01-31T15:57:32.147Z</time>
      </trkpt>
      <trkpt lat="48.60569" lon="-2.99689">
        <ele>87.9</ele>
        <time>2023-01-31T15:57:32.647Z</time>
      </trkpt>
      <trkpt lat="48.60565" lon="-2.99684">
        <ele>87.8</ele>
        <time>2023-01-31T15:57:33.071Z</time>
      </trkpt>
      <trkpt lat="48.6056" lon="-2.99681">
        <ele>87.6</ele>
        <time>2023-01-31T15:57:33.452Z</time>
      </trkpt>
      <trkpt lat="48.60553" lon="-2.99676">
        <ele>87.2</ele>
        <time>2023-01-31T15:57:33.948Z</time>
      </trkpt>
      <trkpt lat="48.60546" lon="-2.99671">
        <ele>86.8</ele>
        <time>2023-01-31T15:57:34.443Z</time>
      </trkpt>
      <trkpt lat="48.60541" lon="-2.99669">
        <ele>86.6</ele>
        <time>2023-01-31T15:57:34.806Z</time>
      </trkpt>
      <trkpt lat="48.60536" lon="-2.99668">
        <ele>86.3</ele>
        <time>2023-01-31T15:57:35.113Z</time>
      </trkpt>
      <trkpt lat="48.6053" lon="-2.99666">
        <ele>86.1</ele>
        <time>2023-01-31T15:57:35.564Z</time>
      </trkpt>
      <trkpt lat="48.60523" lon="-2.99665">
        <ele>85.8</ele>
        <time>2023-01-31T15:57:36.043Z</time>
      </trkpt>
      <trkpt lat="48.60518" lon="-2.99666">
        <ele>85.6</ele>
        <time>2023-01-31T15:57:36.394Z</time>
      </trkpt>
      <trkpt lat="48.60512" lon="-2.99666">
        <ele>85.4</ele>
        <time>2023-01-31T15:57:36.832Z</time>
      </trkpt>
      <trkpt lat="48.60505" lon="-2.99671">
        <ele>85.3</ele>
        <time>2023-01-31T15:57:37.499Z</time>
      </trkpt>
      <trkpt lat="48.605" lon="-2.99676">
        <ele>85.3</ele>
        <time>2023-01-31T15:57:38.081Z</time>
      </trkpt>
      <trkpt lat="48.60494" lon="-2.99681">
        <ele>85.5</ele>
        <time>2023-01-31T15:57:38.982Z</time>
      </trkpt>
      <trkpt lat="48.6049" lon="-2.99687">
        <ele>85.7</ele>
        <time>2023-01-31T15:57:39.779Z</time>
      </trkpt>
      <trkpt lat="48.60485" lon="-2.99692">
        <ele>85.9</ele>
        <time>2023-01-31T15:57:40.607Z</time>
      </trkpt>
      <trkpt lat="48.60481" lon="-2.99698">
        <ele>86</ele>
        <time>2023-01-31T15:57:41.260Z</time>
      </trkpt>
      <trkpt lat="48.60476" lon="-2.99703">
        <ele>86</ele>
        <time>2023-01-31T15:57:41.842Z</time>
      </trkpt>
      <trkpt lat="48.60473" lon="-2.99709">
        <ele>86</ele>
        <time>2023-01-31T15:57:42.324Z</time>
      </trkpt>
      <trkpt lat="48.60471" lon="-2.99716">
        <ele>86.1</ele>
        <time>2023-01-31T15:57:42.922Z</time>
      </trkpt>
      <trkpt lat="48.60468" lon="-2.99722">
        <ele>86.2</ele>
        <time>2023-01-31T15:57:43.513Z</time>
      </trkpt>
      <trkpt lat="48.60465" lon="-2.9973">
        <ele>86.3</ele>
        <time>2023-01-31T15:57:44.209Z</time>
      </trkpt>
      <trkpt lat="48.60462" lon="-2.99738">
        <ele>86.4</ele>
        <time>2023-01-31T15:57:44.905Z</time>
      </trkpt>
      <trkpt lat="48.60458" lon="-2.99745">
        <ele>86.5</ele>
        <time>2023-01-31T15:57:45.603Z</time>
      </trkpt>
      <trkpt lat="48.60455" lon="-2.99753">
        <ele>86.6</ele>
        <time>2023-01-31T15:57:46.299Z</time>
      </trkpt>
      <trkpt lat="48.60451" lon="-2.99764">
        <ele>86.5</ele>
        <time>2023-01-31T15:57:47.020Z</time>
      </trkpt>
      <trkpt lat="48.60447" lon="-2.99774">
        <ele>86.2</ele>
        <time>2023-01-31T15:57:47.561Z</time>
      </trkpt>
      <trkpt lat="48.60441" lon="-2.9978">
        <ele>86.1</ele>
        <time>2023-01-31T15:57:48.176Z</time>
      </trkpt>
      <trkpt lat="48.60434" lon="-2.99786">
        <ele>86.3</ele>
        <time>2023-01-31T15:57:49.184Z</time>
      </trkpt>
      <trkpt lat="48.6043" lon="-2.99791">
        <ele>86.3</ele>
        <time>2023-01-31T15:57:49.688Z</time>
      </trkpt>
      <trkpt lat="48.60426" lon="-2.99795">
        <ele>86.3</ele>
        <time>2023-01-31T15:57:50.153Z</time>
      </trkpt>
      <trkpt lat="48.60424" lon="-2.99796">
        <ele>86.3</ele>
        <time>2023-01-31T15:57:50.357Z</time>
      </trkpt>
      <trkpt lat="48.60419" lon="-2.99797">
        <ele>86.3</ele>
        <time>2023-01-31T15:57:50.846Z</time>
      </trkpt>
      <trkpt lat="48.60413" lon="-2.99798">
        <ele>86.3</ele>
        <time>2023-01-31T15:57:51.431Z</time>
      </trkpt>
      <trkpt lat="48.60408" lon="-2.99799">
        <ele>86.2</ele>
        <time>2023-01-31T15:57:51.841Z</time>
      </trkpt>
      <trkpt lat="48.60402" lon="-2.998">
        <ele>86.2</ele>
        <time>2023-01-31T15:57:52.427Z</time>
      </trkpt>
      <trkpt lat="48.60394" lon="-2.99802">
        <ele>86.1</ele>
        <time>2023-01-31T15:57:53.129Z</time>
      </trkpt>
      <trkpt lat="48.60386" lon="-2.99803">
        <ele>86.2</ele>
        <time>2023-01-31T15:57:54.010Z</time>
      </trkpt>
      <trkpt lat="48.60383" lon="-2.99816">
        <ele>86.5</ele>
        <time>2023-01-31T15:57:55.261Z</time>
      </trkpt>
      <trkpt lat="48.6038" lon="-2.99828">
        <ele>86.9</ele>
        <time>2023-01-31T15:57:56.645Z</time>
      </trkpt>
      <trkpt lat="48.60379" lon="-2.99837">
        <ele>87.1</ele>
        <time>2023-01-31T15:57:57.476Z</time>
      </trkpt>
      <trkpt lat="48.60377" lon="-2.99847">
        <ele>87.2</ele>
        <time>2023-01-31T15:57:58.250Z</time>
      </trkpt>
      <trkpt lat="48.60376" lon="-2.99856">
        <ele>87.4</ele>
        <time>2023-01-31T15:57:59.081Z</time>
      </trkpt>
      <trkpt lat="48.60374" lon="-2.99865">
        <ele>87.6</ele>
        <time>2023-01-31T15:57:59.933Z</time>
      </trkpt>
      <trkpt lat="48.60373" lon="-2.99873">
        <ele>87.7</ele>
        <time>2023-01-31T15:58:00.563Z</time>
      </trkpt>
      <trkpt lat="48.60372" lon="-2.9988">
        <ele>87.9</ele>
        <time>2023-01-31T15:58:01.290Z</time>
      </trkpt>
      <trkpt lat="48.60367" lon="-2.9989">
        <ele>88</ele>
        <time>2023-01-31T15:58:02.195Z</time>
      </trkpt>
      <trkpt lat="48.60362" lon="-2.999">
        <ele>88</ele>
        <time>2023-01-31T15:58:02.999Z</time>
      </trkpt>
      <trkpt lat="48.60358" lon="-2.99909">
        <ele>88.1</ele>
        <time>2023-01-31T15:58:03.798Z</time>
      </trkpt>
      <trkpt lat="48.60354" lon="-2.99918">
        <ele>88.3</ele>
        <time>2023-01-31T15:58:04.728Z</time>
      </trkpt>
      <trkpt lat="48.60349" lon="-2.99927">
        <ele>88.6</ele>
        <time>2023-01-31T15:58:05.870Z</time>
      </trkpt>
      <trkpt lat="48.60345" lon="-2.99936">
        <ele>88.9</ele>
        <time>2023-01-31T15:58:06.965Z</time>
      </trkpt>
      <trkpt lat="48.60344" lon="-2.99941">
        <ele>89</ele>
        <time>2023-01-31T15:58:07.418Z</time>
      </trkpt>
      <trkpt lat="48.60342" lon="-2.99951">
        <ele>89.2</ele>
        <time>2023-01-31T15:58:08.325Z</time>
      </trkpt>
      <trkpt lat="48.60341" lon="-2.99961">
        <ele>89.6</ele>
        <time>2023-01-31T15:58:09.610Z</time>
      </trkpt>
      <trkpt lat="48.60339" lon="-2.9997">
        <ele>89.9</ele>
        <time>2023-01-31T15:58:10.643Z</time>
      </trkpt>
      <trkpt lat="48.60337" lon="-2.9998">
        <ele>90.2</ele>
        <time>2023-01-31T15:58:11.719Z</time>
      </trkpt>
      <trkpt lat="48.60338" lon="-2.99991">
        <ele>90.6</ele>
        <time>2023-01-31T15:58:13.035Z</time>
      </trkpt>
      <trkpt lat="48.6034" lon="-3.00002">
        <ele>90.8</ele>
        <time>2023-01-31T15:58:13.998Z</time>
      </trkpt>
      <trkpt lat="48.60341" lon="-3.00013">
        <ele>90.9</ele>
        <time>2023-01-31T15:58:14.813Z</time>
      </trkpt>
      <trkpt lat="48.60342" lon="-3.00024">
        <ele>91</ele>
        <time>2023-01-31T15:58:15.628Z</time>
      </trkpt>
      <trkpt lat="48.60343" lon="-3.00031">
        <ele>91.1</ele>
        <time>2023-01-31T15:58:16.198Z</time>
      </trkpt>
      <trkpt lat="48.60344" lon="-3.00039">
        <ele>91.2</ele>
        <time>2023-01-31T15:58:16.827Z</time>
      </trkpt>
      <trkpt lat="48.60344" lon="-3.00046">
        <ele>91.4</ele>
        <time>2023-01-31T15:58:17.547Z</time>
      </trkpt>
      <trkpt lat="48.60345" lon="-3.00053">
        <ele>91.5</ele>
        <time>2023-01-31T15:58:18.116Z</time>
      </trkpt>
      <trkpt lat="48.60345" lon="-3.00062">
        <ele>91.7</ele>
        <time>2023-01-31T15:58:18.940Z</time>
      </trkpt>
      <trkpt lat="48.60346" lon="-3.00072">
        <ele>91.8</ele>
        <time>2023-01-31T15:58:19.693Z</time>
      </trkpt>
      <trkpt lat="48.60346" lon="-3.00081">
        <ele>92</ele>
        <time>2023-01-31T15:58:20.517Z</time>
      </trkpt>
      <trkpt lat="48.60346" lon="-3.0009">
        <ele>92.2</ele>
        <time>2023-01-31T15:58:21.341Z</time>
      </trkpt>
      <trkpt lat="48.60347" lon="-3.00102">
        <ele>92.7</ele>
        <time>2023-01-31T15:58:22.934Z</time>
      </trkpt>
      <trkpt lat="48.60347" lon="-3.00113">
        <ele>93</ele>
        <time>2023-01-31T15:58:24.037Z</time>
      </trkpt>
      <trkpt lat="48.60348" lon="-3.00125">
        <ele>93.2</ele>
        <time>2023-01-31T15:58:25.041Z</time>
      </trkpt>
      <trkpt lat="48.60348" lon="-3.00136">
        <ele>93.4</ele>
        <time>2023-01-31T15:58:25.980Z</time>
      </trkpt>
      <trkpt lat="48.60348" lon="-3.00144">
        <ele>93.6</ele>
        <time>2023-01-31T15:58:26.750Z</time>
      </trkpt>
      <trkpt lat="48.60348" lon="-3.00152">
        <ele>93.7</ele>
        <time>2023-01-31T15:58:27.371Z</time>
      </trkpt>
      <trkpt lat="48.60348" lon="-3.00165">
        <ele>94</ele>
        <time>2023-01-31T15:58:28.579Z</time>
      </trkpt>
      <trkpt lat="48.60347" lon="-3.00179">
        <ele>94.2</ele>
        <time>2023-01-31T15:58:29.703Z</time>
      </trkpt>
      <trkpt lat="48.60347" lon="-3.00192">
        <ele>94.5</ele>
        <time>2023-01-31T15:58:30.911Z</time>
      </trkpt>
      <trkpt lat="48.60346" lon="-3.00205">
        <ele>94.3</ele>
        <time>2023-01-31T15:58:31.596Z</time>
      </trkpt>
      <trkpt lat="48.60346" lon="-3.00214">
        <ele>94.2</ele>
        <time>2023-01-31T15:58:32.092Z</time>
      </trkpt>
      <trkpt lat="48.60345" lon="-3.00224">
        <ele>94</ele>
        <time>2023-01-31T15:58:32.593Z</time>
      </trkpt>
      <trkpt lat="48.60345" lon="-3.00233">
        <ele>94.2</ele>
        <time>2023-01-31T15:58:33.417Z</time>
      </trkpt>
      <trkpt lat="48.60344" lon="-3.00242">
        <ele>94.3</ele>
        <time>2023-01-31T15:58:34.108Z</time>
      </trkpt>
      <trkpt lat="48.60344" lon="-3.00253">
        <ele>94.5</ele>
        <time>2023-01-31T15:58:35.047Z</time>
      </trkpt>
      <trkpt lat="48.60343" lon="-3.00264">
        <ele>94.9</ele>
        <time>2023-01-31T15:58:36.363Z</time>
      </trkpt>
      <trkpt lat="48.60343" lon="-3.00275">
        <ele>95.2</ele>
        <time>2023-01-31T15:58:37.466Z</time>
      </trkpt>
      <trkpt lat="48.60342" lon="-3.00286">
        <ele>95.5</ele>
        <time>2023-01-31T15:58:38.574Z</time>
      </trkpt>
      <trkpt lat="48.60341" lon="-3.00289">
        <ele>95.6</ele>
        <time>2023-01-31T15:58:38.927Z</time>
      </trkpt>
      <trkpt lat="48.60338" lon="-3.00299">
        <ele>95.8</ele>
        <time>2023-01-31T15:58:39.865Z</time>
      </trkpt>
      <trkpt lat="48.60336" lon="-3.00309">
        <ele>96</ele>
        <time>2023-01-31T15:58:40.771Z</time>
      </trkpt>
      <trkpt lat="48.60333" lon="-3.00319">
        <ele>96</ele>
        <time>2023-01-31T15:58:41.475Z</time>
      </trkpt>
      <trkpt lat="48.6033" lon="-3.00329">
        <ele>96</ele>
        <time>2023-01-31T15:58:42.180Z</time>
      </trkpt>
      <trkpt lat="48.60327" lon="-3.0034">
        <ele>96</ele>
        <time>2023-01-31T15:58:42.943Z</time>
      </trkpt>
      <trkpt lat="48.60325" lon="-3.00351">
        <ele>96</ele>
        <time>2023-01-31T15:58:43.674Z</time>
      </trkpt>
      <trkpt lat="48.60322" lon="-3.00361">
        <ele>96</ele>
        <time>2023-01-31T15:58:44.378Z</time>
      </trkpt>
      <trkpt lat="48.60319" lon="-3.00372">
        <ele>96</ele>
        <time>2023-01-31T15:58:45.142Z</time>
      </trkpt>
      <trkpt lat="48.60317" lon="-3.00379">
        <ele>96</ele>
        <time>2023-01-31T15:58:45.631Z</time>
      </trkpt>
      <trkpt lat="48.60315" lon="-3.00386">
        <ele>96</ele>
        <time>2023-01-31T15:58:46.120Z</time>
      </trkpt>
      <trkpt lat="48.60313" lon="-3.00392">
        <ele>96</ele>
        <time>2023-01-31T15:58:46.550Z</time>
      </trkpt>
      <trkpt lat="48.60311" lon="-3.00399">
        <ele>96</ele>
        <time>2023-01-31T15:58:47.040Z</time>
      </trkpt>
      <trkpt lat="48.6031" lon="-3.0041">
        <ele>96</ele>
        <time>2023-01-31T15:58:47.752Z</time>
      </trkpt>
      <trkpt lat="48.6031" lon="-3.00421">
        <ele>96.1</ele>
        <time>2023-01-31T15:58:48.560Z</time>
      </trkpt>
      <trkpt lat="48.60309" lon="-3.00431">
        <ele>96.5</ele>
        <time>2023-01-31T15:58:49.846Z</time>
      </trkpt>
      <trkpt lat="48.60308" lon="-3.00442">
        <ele>96.9</ele>
        <time>2023-01-31T15:58:51.161Z</time>
      </trkpt>
      <trkpt lat="48.60307" lon="-3.00454">
        <ele>97</ele>
        <time>2023-01-31T15:58:52.039Z</time>
      </trkpt>
      <trkpt lat="48.60306" lon="-3.00466">
        <ele>97</ele>
        <time>2023-01-31T15:58:52.815Z</time>
      </trkpt>
      <trkpt lat="48.60305" lon="-3.00473">
        <ele>97</ele>
        <time>2023-01-31T15:58:53.274Z</time>
      </trkpt>
      <trkpt lat="48.60305" lon="-3.0048">
        <ele>97</ele>
        <time>2023-01-31T15:58:53.723Z</time>
      </trkpt>
      <trkpt lat="48.60305" lon="-3.00488">
        <ele>97</ele>
        <time>2023-01-31T15:58:54.236Z</time>
      </trkpt>
      <trkpt lat="48.60305" lon="-3.00495">
        <ele>97</ele>
        <time>2023-01-31T15:58:54.685Z</time>
      </trkpt>
      <trkpt lat="48.60305" lon="-3.00502">
        <ele>97.1</ele>
        <time>2023-01-31T15:58:55.245Z</time>
      </trkpt>
      <trkpt lat="48.60305" lon="-3.00509">
        <ele>97.3</ele>
        <time>2023-01-31T15:58:55.964Z</time>
      </trkpt>
      <trkpt lat="48.60305" lon="-3.00517">
        <ele>97.6</ele>
        <time>2023-01-31T15:58:56.940Z</time>
      </trkpt>
      <trkpt lat="48.60305" lon="-3.00524">
        <ele>97.9</ele>
        <time>2023-01-31T15:58:57.891Z</time>
      </trkpt>
      <trkpt lat="48.60305" lon="-3.00531">
        <ele>98</ele>
        <time>2023-01-31T15:58:58.450Z</time>
      </trkpt>
      <trkpt lat="48.60305" lon="-3.00539">
        <ele>98</ele>
        <time>2023-01-31T15:58:58.963Z</time>
      </trkpt>
      <trkpt lat="48.60305" lon="-3.00548">
        <ele>98</ele>
        <time>2023-01-31T15:58:59.541Z</time>
      </trkpt>
      <trkpt lat="48.60305" lon="-3.00556">
        <ele>98</ele>
        <time>2023-01-31T15:59:00.054Z</time>
      </trkpt>
      <trkpt lat="48.60305" lon="-3.00564">
        <ele>98</ele>
        <time>2023-01-31T15:59:00.567Z</time>
      </trkpt>
      <trkpt lat="48.60305" lon="-3.00575">
        <ele>98</ele>
        <time>2023-01-31T15:59:01.272Z</time>
      </trkpt>
      <trkpt lat="48.60305" lon="-3.00586">
        <ele>98</ele>
        <time>2023-01-31T15:59:01.977Z</time>
      </trkpt>
      <trkpt lat="48.60305" lon="-3.00596">
        <ele>98</ele>
        <time>2023-01-31T15:59:02.619Z</time>
      </trkpt>
      <trkpt lat="48.60305" lon="-3.00607">
        <ele>98</ele>
        <time>2023-01-31T15:59:03.324Z</time>
      </trkpt>
      <trkpt lat="48.60304" lon="-3.00618">
        <ele>98</ele>
        <time>2023-01-31T15:59:04.036Z</time>
      </trkpt>
      <trkpt lat="48.60304" lon="-3.00629">
        <ele>98</ele>
        <time>2023-01-31T15:59:04.742Z</time>
      </trkpt>
      <trkpt lat="48.60304" lon="-3.00639">
        <ele>98.1</ele>
        <time>2023-01-31T15:59:05.488Z</time>
      </trkpt>
      <trkpt lat="48.60304" lon="-3.0065">
        <ele>98.4</ele>
        <time>2023-01-31T15:59:06.591Z</time>
      </trkpt>
      <trkpt lat="48.60304" lon="-3.00661">
        <ele>98.8</ele>
        <time>2023-01-31T15:59:07.903Z</time>
      </trkpt>
      <trkpt lat="48.60304" lon="-3.00672">
        <ele>99</ele>
        <time>2023-01-31T15:59:08.842Z</time>
      </trkpt>
      <trkpt lat="48.60304" lon="-3.00683">
        <ele>99</ele>
        <time>2023-01-31T15:59:09.547Z</time>
      </trkpt>
      <trkpt lat="48.60304" lon="-3.00694">
        <ele>99</ele>
        <time>2023-01-31T15:59:10.253Z</time>
      </trkpt>
      <trkpt lat="48.60304" lon="-3.00701">
        <ele>99</ele>
        <time>2023-01-31T15:59:10.702Z</time>
      </trkpt>
      <trkpt lat="48.60304" lon="-3.00709">
        <ele>99</ele>
        <time>2023-01-31T15:59:11.215Z</time>
      </trkpt>
      <trkpt lat="48.60303" lon="-3.00716">
        <ele>99</ele>
        <time>2023-01-31T15:59:11.674Z</time>
      </trkpt>
      <trkpt lat="48.60303" lon="-3.00723">
        <ele>99</ele>
        <time>2023-01-31T15:59:12.123Z</time>
      </trkpt>
      <trkpt lat="48.60303" lon="-3.00735">
        <ele>98.6</ele>
        <time>2023-01-31T15:59:12.635Z</time>
      </trkpt>
      <trkpt lat="48.60304" lon="-3.00744">
        <ele>98.3</ele>
        <time>2023-01-31T15:59:13.027Z</time>
      </trkpt>
      <trkpt lat="48.60305" lon="-3.00753">
        <ele>98</ele>
        <time>2023-01-31T15:59:13.418Z</time>
      </trkpt>
      <trkpt lat="48.60307" lon="-3.00762">
        <ele>98</ele>
        <time>2023-01-31T15:59:14.027Z</time>
      </trkpt>
      <trkpt lat="48.60308" lon="-3.00771">
        <ele>98</ele>
        <time>2023-01-31T15:59:14.612Z</time>
      </trkpt>
      <trkpt lat="48.6031" lon="-3.00781">
        <ele>98.1</ele>
        <time>2023-01-31T15:59:15.386Z</time>
      </trkpt>
      <trkpt lat="48.60311" lon="-3.0079">
        <ele>98.3</ele>
        <time>2023-01-31T15:59:16.217Z</time>
      </trkpt>
      <trkpt lat="48.60312" lon="-3.00799">
        <ele>98.6</ele>
        <time>2023-01-31T15:59:17.234Z</time>
      </trkpt>
      <trkpt lat="48.60314" lon="-3.00808">
        <ele>98.7</ele>
        <time>2023-01-31T15:59:17.948Z</time>
      </trkpt>
      <trkpt lat="48.60315" lon="-3.00817">
        <ele>98.8</ele>
        <time>2023-01-31T15:59:18.640Z</time>
      </trkpt>
      <trkpt lat="48.60316" lon="-3.00824">
        <ele>98.9</ele>
        <time>2023-01-31T15:59:19.209Z</time>
      </trkpt>
      <trkpt lat="48.60317" lon="-3.00832">
        <ele>99</ele>
        <time>2023-01-31T15:59:19.839Z</time>
      </trkpt>
      <trkpt lat="48.60318" lon="-3.00839">
        <ele>99</ele>
        <time>2023-01-31T15:59:20.298Z</time>
      </trkpt>
      <trkpt lat="48.60319" lon="-3.00846">
        <ele>99</ele>
        <time>2023-01-31T15:59:20.757Z</time>
      </trkpt>
      <trkpt lat="48.60321" lon="-3.00856">
        <ele>99</ele>
        <time>2023-01-31T15:59:21.427Z</time>
      </trkpt>
      <trkpt lat="48.60323" lon="-3.00866">
        <ele>99</ele>
        <time>2023-01-31T15:59:22.097Z</time>
      </trkpt>
      <trkpt lat="48.60325" lon="-3.00876">
        <ele>99</ele>
        <time>2023-01-31T15:59:22.767Z</time>
      </trkpt>
      <trkpt lat="48.60327" lon="-3.00887">
        <ele>99</ele>
        <time>2023-01-31T15:59:23.499Z</time>
      </trkpt>
      <trkpt lat="48.60328" lon="-3.00897">
        <ele>99.2</ele>
        <time>2023-01-31T15:59:24.386Z</time>
      </trkpt>
      <trkpt lat="48.6033" lon="-3.00907">
        <ele>99.6</ele>
        <time>2023-01-31T15:59:25.681Z</time>
      </trkpt>
      <trkpt lat="48.60332" lon="-3.00917">
        <ele>99.9</ele>
        <time>2023-01-31T15:59:26.757Z</time>
      </trkpt>
      <trkpt lat="48.60334" lon="-3.00927">
        <ele>99.6</ele>
        <time>2023-01-31T15:59:27.225Z</time>
      </trkpt>
      <trkpt lat="48.60336" lon="-3.00936">
        <ele>99.4</ele>
        <time>2023-01-31T15:59:27.688Z</time>
      </trkpt>
      <trkpt lat="48.60338" lon="-3.00945">
        <ele>99.2</ele>
        <time>2023-01-31T15:59:28.152Z</time>
      </trkpt>
      <trkpt lat="48.6034" lon="-3.00953">
        <ele>99.2</ele>
        <time>2023-01-31T15:59:28.700Z</time>
      </trkpt>
      <trkpt lat="48.60342" lon="-3.00962">
        <ele>99.3</ele>
        <time>2023-01-31T15:59:29.414Z</time>
      </trkpt>
      <trkpt lat="48.60344" lon="-3.00974">
        <ele>99.4</ele>
        <time>2023-01-31T15:59:30.310Z</time>
      </trkpt>
      <trkpt lat="48.60346" lon="-3.00985">
        <ele>99.5</ele>
        <time>2023-01-31T15:59:31.145Z</time>
      </trkpt>
      <trkpt lat="48.60348" lon="-3.00997">
        <ele>99.5</ele>
        <time>2023-01-31T15:59:31.938Z</time>
      </trkpt>
      <trkpt lat="48.6035" lon="-3.01008">
        <ele>99.4</ele>
        <time>2023-01-31T15:59:32.587Z</time>
      </trkpt>
      <trkpt lat="48.6035" lon="-3.01016">
        <ele>99.3</ele>
        <time>2023-01-31T15:59:33.020Z</time>
      </trkpt>
      <trkpt lat="48.6035" lon="-3.01023">
        <ele>99.1</ele>
        <time>2023-01-31T15:59:33.334Z</time>
      </trkpt>
      <trkpt lat="48.6035" lon="-3.01031">
        <ele>99</ele>
        <time>2023-01-31T15:59:33.767Z</time>
      </trkpt>
      <trkpt lat="48.6035" lon="-3.01038">
        <ele>99</ele>
        <time>2023-01-31T15:59:34.216Z</time>
      </trkpt>
      <trkpt lat="48.60349" lon="-3.0105">
        <ele>99</ele>
        <time>2023-01-31T15:59:34.992Z</time>
      </trkpt>
      <trkpt lat="48.60348" lon="-3.01059">
        <ele>98.9</ele>
        <time>2023-01-31T15:59:35.496Z</time>
      </trkpt>
      <trkpt lat="48.60347" lon="-3.01068">
        <ele>98.8</ele>
        <time>2023-01-31T15:59:36.000Z</time>
      </trkpt>
      <trkpt lat="48.60343" lon="-3.0108">
        <ele>98.4</ele>
        <time>2023-01-31T15:59:36.595Z</time>
      </trkpt>
      <trkpt lat="48.60339" lon="-3.01091">
        <ele>98.4</ele>
        <time>2023-01-31T15:59:37.400Z</time>
      </trkpt>
      <trkpt lat="48.60337" lon="-3.01099">
        <ele>98.6</ele>
        <time>2023-01-31T15:59:38.200Z</time>
      </trkpt>
      <trkpt lat="48.60334" lon="-3.01112">
        <ele>99</ele>
        <time>2023-01-31T15:59:39.627Z</time>
      </trkpt>
      <trkpt lat="48.6033" lon="-3.01124">
        <ele>99</ele>
        <time>2023-01-31T15:59:40.489Z</time>
      </trkpt>
      <trkpt lat="48.60328" lon="-3.01134">
        <ele>99</ele>
        <time>2023-01-31T15:59:41.159Z</time>
      </trkpt>
      <trkpt lat="48.60326" lon="-3.01143">
        <ele>99</ele>
        <time>2023-01-31T15:59:41.768Z</time>
      </trkpt>
      <trkpt lat="48.60325" lon="-3.01149">
        <ele>99</ele>
        <time>2023-01-31T15:59:42.165Z</time>
      </trkpt>
      <trkpt lat="48.60324" lon="-3.01157">
        <ele>99</ele>
        <time>2023-01-31T15:59:42.687Z</time>
      </trkpt>
      <trkpt lat="48.60323" lon="-3.01165">
        <ele>99</ele>
        <time>2023-01-31T15:59:43.209Z</time>
      </trkpt>
      <trkpt lat="48.60322" lon="-3.01172">
        <ele>98.8</ele>
        <time>2023-01-31T15:59:43.533Z</time>
      </trkpt>
      <trkpt lat="48.60321" lon="-3.0118">
        <ele>98.5</ele>
        <time>2023-01-31T15:59:43.868Z</time>
      </trkpt>
      <trkpt lat="48.6032" lon="-3.01187">
        <ele>98.3</ele>
        <time>2023-01-31T15:59:44.192Z</time>
      </trkpt>
      <trkpt lat="48.60319" lon="-3.01194">
        <ele>98</ele>
        <time>2023-01-31T15:59:44.473Z</time>
      </trkpt>
      <trkpt lat="48.60319" lon="-3.012">
        <ele>98.1</ele>
        <time>2023-01-31T15:59:44.972Z</time>
      </trkpt>
      <trkpt lat="48.60319" lon="-3.01214">
        <ele>98.4</ele>
        <time>2023-01-31T15:59:46.236Z</time>
      </trkpt>
      <trkpt lat="48.60319" lon="-3.01227">
        <ele>98.5</ele>
        <time>2023-01-31T15:59:47.171Z</time>
      </trkpt>
      <trkpt lat="48.60319" lon="-3.01241">
        <ele>98.5</ele>
        <time>2023-01-31T15:59:48.069Z</time>
      </trkpt>
      <trkpt lat="48.60319" lon="-3.01254">
        <ele>98.5</ele>
        <time>2023-01-31T15:59:48.903Z</time>
      </trkpt>
      <trkpt lat="48.60319" lon="-3.01261">
        <ele>98.5</ele>
        <time>2023-01-31T15:59:49.351Z</time>
      </trkpt>
      <trkpt lat="48.60319" lon="-3.01269">
        <ele>98.5</ele>
        <time>2023-01-31T15:59:49.864Z</time>
      </trkpt>
      <trkpt lat="48.60319" lon="-3.01276">
        <ele>98.5</ele>
        <time>2023-01-31T15:59:50.313Z</time>
      </trkpt>
      <trkpt lat="48.60319" lon="-3.01283">
        <ele>98.4</ele>
        <time>2023-01-31T15:59:50.684Z</time>
      </trkpt>
      <trkpt lat="48.60319" lon="-3.01297">
        <ele>98.2</ele>
        <time>2023-01-31T15:59:51.425Z</time>
      </trkpt>
      <trkpt lat="48.60319" lon="-3.0131">
        <ele>98</ele>
        <time>2023-01-31T15:59:52.105Z</time>
      </trkpt>
      <trkpt lat="48.60319" lon="-3.01319">
        <ele>98</ele>
        <time>2023-01-31T15:59:52.682Z</time>
      </trkpt>
      <trkpt lat="48.60319" lon="-3.01327">
        <ele>98</ele>
        <time>2023-01-31T15:59:53.195Z</time>
      </trkpt>
      <trkpt lat="48.60319" lon="-3.01336">
        <ele>98</ele>
        <time>2023-01-31T15:59:53.772Z</time>
      </trkpt>
      <trkpt lat="48.60319" lon="-3.01344">
        <ele>98</ele>
        <time>2023-01-31T15:59:54.285Z</time>
      </trkpt>
      <trkpt lat="48.60319" lon="-3.01352">
        <ele>98</ele>
        <time>2023-01-31T15:59:54.798Z</time>
      </trkpt>
      <trkpt lat="48.60319" lon="-3.0136">
        <ele>98</ele>
        <time>2023-01-31T15:59:55.311Z</time>
      </trkpt>
      <trkpt lat="48.60319" lon="-3.01367">
        <ele>98</ele>
        <time>2023-01-31T15:59:55.760Z</time>
      </trkpt>
      <trkpt lat="48.60319" lon="-3.01375">
        <ele>98</ele>
        <time>2023-01-31T15:59:56.273Z</time>
      </trkpt>
      <trkpt lat="48.60319" lon="-3.01384">
        <ele>98</ele>
        <time>2023-01-31T15:59:56.850Z</time>
      </trkpt>
      <trkpt lat="48.60319" lon="-3.01392">
        <ele>98</ele>
        <time>2023-01-31T15:59:57.363Z</time>
      </trkpt>
      <trkpt lat="48.6032" lon="-3.01397">
        <ele>98</ele>
        <time>2023-01-31T15:59:57.698Z</time>
      </trkpt>
      <trkpt lat="48.60322" lon="-3.01404">
        <ele>98</ele>
        <time>2023-01-31T15:59:58.187Z</time>
      </trkpt>
      <trkpt lat="48.60325" lon="-3.01412">
        <ele>98</ele>
        <time>2023-01-31T15:59:58.777Z</time>
      </trkpt>
      <trkpt lat="48.60327" lon="-3.01419">
        <ele>98</ele>
        <time>2023-01-31T15:59:59.266Z</time>
      </trkpt>
      <trkpt lat="48.60329" lon="-3.01426">
        <ele>98</ele>
        <time>2023-01-31T15:59:59.755Z</time>
      </trkpt>
      <trkpt lat="48.60332" lon="-3.01436">
        <ele>98</ele>
        <time>2023-01-31T16:00:00.459Z</time>
      </trkpt>
      <trkpt lat="48.60335" lon="-3.01445">
        <ele>98</ele>
        <time>2023-01-31T16:00:01.106Z</time>
      </trkpt>
      <trkpt lat="48.60338" lon="-3.01455">
        <ele>97.9</ele>
        <time>2023-01-31T16:00:01.727Z</time>
      </trkpt>
      <trkpt lat="48.60341" lon="-3.01464">
        <ele>97.8</ele>
        <time>2023-01-31T16:00:02.291Z</time>
      </trkpt>
      <trkpt lat="48.60345" lon="-3.0147">
        <ele>97.6</ele>
        <time>2023-01-31T16:00:02.696Z</time>
      </trkpt>
      <trkpt lat="48.60348" lon="-3.01475">
        <ele>97.5</ele>
        <time>2023-01-31T16:00:03.051Z</time>
      </trkpt>
      <trkpt lat="48.60353" lon="-3.01485">
        <ele>97.3</ele>
        <time>2023-01-31T16:00:03.701Z</time>
      </trkpt>
      <trkpt lat="48.60357" lon="-3.01494">
        <ele>97.1</ele>
        <time>2023-01-31T16:00:04.247Z</time>
      </trkpt>
      <trkpt lat="48.60362" lon="-3.01504">
        <ele>97</ele>
        <time>2023-01-31T16:00:04.967Z</time>
      </trkpt>
      <trkpt lat="48.60364" lon="-3.01507">
        <ele>97</ele>
        <time>2023-01-31T16:00:05.240Z</time>
      </trkpt>
      <trkpt lat="48.6037" lon="-3.01511">
        <ele>97</ele>
        <time>2023-01-31T16:00:05.876Z</time>
      </trkpt>
      <trkpt lat="48.60373" lon="-3.01513">
        <ele>97</ele>
        <time>2023-01-31T16:00:06.194Z</time>
      </trkpt>
      <trkpt lat="48.6038" lon="-3.01519">
        <ele>97</ele>
        <time>2023-01-31T16:00:06.974Z</time>
      </trkpt>
      <trkpt lat="48.60386" lon="-3.01525">
        <ele>97</ele>
        <time>2023-01-31T16:00:07.672Z</time>
      </trkpt>
    </trkseg>
  </trk>
</gpx>